<?xml version="1.0" encoding="UTF-8" standalone="no" ?>
<gpx xmlns="http://www.topografix.com/GPX/1/1" xmlns:xsi="http://www.w3.org/2001/XMLSchema-instance" xsi:schemaLocation="http://www.topografix.com/GPX/1/1 http://www.topografix.com/GPX/1/1/gpx.xsd" version="1.1" creator="VisuGPX - https://www.visugpx.com">
  <metadata>
    <name>Le Caramy</name>
    <desc><![CDATA[Facile,mais passage plus délicat au niveau de (La Baume de St Michel).
 ]]></desc>
  </metadata>
  <trk>
    <name><![CDATA[Le Caramy_1]]></name>
    <trkseg>
      <trkpt lat="43.39037" lon="5.93189">
        <ele>280.200012</ele>
        <time>2015-05-13T07:23:19Z</time>
      </trkpt>
      <trkpt lat="43.39037" lon="5.93189">
        <ele>280.299987</ele>
        <time>2015-05-13T07:23:20Z</time>
      </trkpt>
      <trkpt lat="43.39006" lon="5.93166">
        <ele>279.1</ele>
        <time>2015-05-13T07:24:34Z</time>
      </trkpt>
      <trkpt lat="43.39005" lon="5.93166">
        <ele>279.3</ele>
        <time>2015-05-13T07:24:35Z</time>
      </trkpt>
      <trkpt lat="43.38976" lon="5.93144">
        <ele>282.2</ele>
        <time>2015-05-13T07:25:05Z</time>
      </trkpt>
      <trkpt lat="43.38961" lon="5.93131">
        <ele>279.7</ele>
        <time>2015-05-13T07:25:21Z</time>
      </trkpt>
      <trkpt lat="43.38945" lon="5.9314">
        <ele>278.7</ele>
        <time>2015-05-13T07:25:43Z</time>
      </trkpt>
      <trkpt lat="43.38945" lon="5.93141">
        <ele>279</ele>
        <time>2015-05-13T07:25:44Z</time>
      </trkpt>
      <trkpt lat="43.38917" lon="5.93145">
        <ele>293.2</ele>
        <time>2015-05-13T07:29:00Z</time>
      </trkpt>
      <trkpt lat="43.38916" lon="5.93145">
        <ele>293</ele>
        <time>2015-05-13T07:29:01Z</time>
      </trkpt>
      <trkpt lat="43.38886" lon="5.93126">
        <ele>285.2</ele>
        <time>2015-05-13T07:29:42Z</time>
      </trkpt>
      <trkpt lat="43.38873" lon="5.9311">
        <ele>288</ele>
        <time>2015-05-13T07:29:55Z</time>
      </trkpt>
      <trkpt lat="43.38861" lon="5.93094">
        <ele>288.7</ele>
        <time>2015-05-13T07:30:09Z</time>
      </trkpt>
      <trkpt lat="43.38859" lon="5.93093">
        <ele>289.2</ele>
        <time>2015-05-13T07:30:10Z</time>
      </trkpt>
      <trkpt lat="43.38831" lon="5.93069">
        <ele>281.3</ele>
        <time>2015-05-13T07:30:46Z</time>
      </trkpt>
      <trkpt lat="43.38814" lon="5.93065">
        <ele>288.2</ele>
        <time>2015-05-13T07:31:05Z</time>
      </trkpt>
      <trkpt lat="43.38798" lon="5.93076">
        <ele>284</ele>
        <time>2015-05-13T07:31:20Z</time>
      </trkpt>
      <trkpt lat="43.38797" lon="5.93076">
        <ele>284.2</ele>
        <time>2015-05-13T07:31:21Z</time>
      </trkpt>
      <trkpt lat="43.38769" lon="5.93102">
        <ele>279.8</ele>
        <time>2015-05-13T07:32:03Z</time>
      </trkpt>
      <trkpt lat="43.38752" lon="5.93111">
        <ele>285.2</ele>
        <time>2015-05-13T07:32:23Z</time>
      </trkpt>
      <trkpt lat="43.38751" lon="5.93111">
        <ele>285.6</ele>
        <time>2015-05-13T07:32:24Z</time>
      </trkpt>
      <trkpt lat="43.38726" lon="5.93141">
        <ele>293.8</ele>
        <time>2015-05-13T07:33:04Z</time>
      </trkpt>
      <trkpt lat="43.38714" lon="5.93159">
        <ele>294.2</ele>
        <time>2015-05-13T07:33:25Z</time>
      </trkpt>
      <trkpt lat="43.38714" lon="5.9316">
        <ele>294.1</ele>
        <time>2015-05-13T07:33:26Z</time>
      </trkpt>
      <trkpt lat="43.38696" lon="5.932">
        <ele>297.3</ele>
        <time>2015-05-13T07:34:08Z</time>
      </trkpt>
      <trkpt lat="43.3869" lon="5.93223">
        <ele>296.2</ele>
        <time>2015-05-13T07:34:32Z</time>
      </trkpt>
      <trkpt lat="43.3869" lon="5.93223">
        <ele>295.8</ele>
        <time>2015-05-13T07:34:33Z</time>
      </trkpt>
      <trkpt lat="43.38687" lon="5.93271">
        <ele>307.1</ele>
        <time>2015-05-13T07:35:12Z</time>
      </trkpt>
      <trkpt lat="43.38686" lon="5.93295">
        <ele>307.2</ele>
        <time>2015-05-13T07:35:37Z</time>
      </trkpt>
      <trkpt lat="43.38686" lon="5.93296">
        <ele>307.2</ele>
        <time>2015-05-13T07:35:38Z</time>
      </trkpt>
      <trkpt lat="43.38667" lon="5.93336">
        <ele>317.1</ele>
        <time>2015-05-13T07:36:21Z</time>
      </trkpt>
      <trkpt lat="43.38656" lon="5.93355">
        <ele>326.6</ele>
        <time>2015-05-13T07:36:46Z</time>
      </trkpt>
      <trkpt lat="43.38656" lon="5.93356">
        <ele>326.6</ele>
        <time>2015-05-13T07:36:47Z</time>
      </trkpt>
      <trkpt lat="43.38656" lon="5.93404">
        <ele>321.1</ele>
        <time>2015-05-13T07:37:43Z</time>
      </trkpt>
      <trkpt lat="43.38654" lon="5.93428">
        <ele>323.2</ele>
        <time>2015-05-13T07:38:07Z</time>
      </trkpt>
      <trkpt lat="43.38654" lon="5.93428">
        <ele>322.8</ele>
        <time>2015-05-13T07:38:08Z</time>
      </trkpt>
      <trkpt lat="43.38635" lon="5.93467">
        <ele>327.1</ele>
        <time>2015-05-13T07:38:50Z</time>
      </trkpt>
      <trkpt lat="43.38623" lon="5.93484">
        <ele>331.6</ele>
        <time>2015-05-13T07:39:10Z</time>
      </trkpt>
      <trkpt lat="43.38622" lon="5.93486">
        <ele>333</ele>
        <time>2015-05-13T07:39:11Z</time>
      </trkpt>
      <trkpt lat="43.38615" lon="5.93524">
        <ele>341.5</ele>
        <time>2015-05-13T07:39:51Z</time>
      </trkpt>
      <trkpt lat="43.38623" lon="5.93546">
        <ele>341.2</ele>
        <time>2015-05-13T07:40:11Z</time>
      </trkpt>
      <trkpt lat="43.38623" lon="5.93547">
        <ele>341.3</ele>
        <time>2015-05-13T07:40:12Z</time>
      </trkpt>
      <trkpt lat="43.3862" lon="5.9357">
        <ele>340.2</ele>
        <time>2015-05-13T07:45:51Z</time>
      </trkpt>
      <trkpt lat="43.38598" lon="5.93606">
        <ele>343.3</ele>
        <time>2015-05-13T07:46:28Z</time>
      </trkpt>
      <trkpt lat="43.38587" lon="5.93625">
        <ele>345.3</ele>
        <time>2015-05-13T07:46:44Z</time>
      </trkpt>
      <trkpt lat="43.38575" lon="5.93642">
        <ele>346.2</ele>
        <time>2015-05-13T07:46:59Z</time>
      </trkpt>
      <trkpt lat="43.38574" lon="5.93643">
        <ele>346.3</ele>
        <time>2015-05-13T07:47:00Z</time>
      </trkpt>
      <trkpt lat="43.38563" lon="5.93685">
        <ele>346.7</ele>
        <time>2015-05-13T07:47:36Z</time>
      </trkpt>
      <trkpt lat="43.38563" lon="5.93709">
        <ele>350.2</ele>
        <time>2015-05-13T07:47:57Z</time>
      </trkpt>
      <trkpt lat="43.38562" lon="5.93732">
        <ele>351.3</ele>
        <time>2015-05-13T07:48:15Z</time>
      </trkpt>
      <trkpt lat="43.38562" lon="5.93734">
        <ele>352.1</ele>
        <time>2015-05-13T07:48:16Z</time>
      </trkpt>
      <trkpt lat="43.38555" lon="5.93778">
        <ele>349</ele>
        <time>2015-05-13T07:48:53Z</time>
      </trkpt>
      <trkpt lat="43.38545" lon="5.93798">
        <ele>353.2</ele>
        <time>2015-05-13T07:49:12Z</time>
      </trkpt>
      <trkpt lat="43.38532" lon="5.93815">
        <ele>348.7</ele>
        <time>2015-05-13T07:49:34Z</time>
      </trkpt>
      <trkpt lat="43.38532" lon="5.93815">
        <ele>348.8</ele>
        <time>2015-05-13T07:49:35Z</time>
      </trkpt>
      <trkpt lat="43.38529" lon="5.93861">
        <ele>360.1</ele>
        <time>2015-05-13T07:50:22Z</time>
      </trkpt>
      <trkpt lat="43.38533" lon="5.93884">
        <ele>359.5</ele>
        <time>2015-05-13T07:50:42Z</time>
      </trkpt>
      <trkpt lat="43.38534" lon="5.93885">
        <ele>359.3</ele>
        <time>2015-05-13T07:50:43Z</time>
      </trkpt>
      <trkpt lat="43.38549" lon="5.93928">
        <ele>360.7</ele>
        <time>2015-05-13T07:51:21Z</time>
      </trkpt>
      <trkpt lat="43.38549" lon="5.93951">
        <ele>362.2</ele>
        <time>2015-05-13T07:51:40Z</time>
      </trkpt>
      <trkpt lat="43.38549" lon="5.93976">
        <ele>354.7</ele>
        <time>2015-05-13T07:52:01Z</time>
      </trkpt>
      <trkpt lat="43.38549" lon="5.93977">
        <ele>354.3</ele>
        <time>2015-05-13T07:52:02Z</time>
      </trkpt>
      <trkpt lat="43.38551" lon="5.94025">
        <ele>350.2</ele>
        <time>2015-05-13T07:52:43Z</time>
      </trkpt>
      <trkpt lat="43.38548" lon="5.94048">
        <ele>344.3</ele>
        <time>2015-05-13T07:53:03Z</time>
      </trkpt>
      <trkpt lat="43.38548" lon="5.9405">
        <ele>345.7</ele>
        <time>2015-05-13T07:53:04Z</time>
      </trkpt>
      <trkpt lat="43.38533" lon="5.94092">
        <ele>361</ele>
        <time>2015-05-13T07:53:42Z</time>
      </trkpt>
      <trkpt lat="43.38521" lon="5.94109">
        <ele>358.1</ele>
        <time>2015-05-13T07:53:58Z</time>
      </trkpt>
      <trkpt lat="43.38507" lon="5.94124">
        <ele>358.8</ele>
        <time>2015-05-13T07:54:13Z</time>
      </trkpt>
      <trkpt lat="43.38506" lon="5.94124">
        <ele>358.8</ele>
        <time>2015-05-13T07:54:14Z</time>
      </trkpt>
      <trkpt lat="43.38494" lon="5.94154">
        <ele>356.7</ele>
        <time>2015-05-13T07:54:53Z</time>
      </trkpt>
      <trkpt lat="43.38503" lon="5.94174">
        <ele>359.6</ele>
        <time>2015-05-13T07:55:11Z</time>
      </trkpt>
      <trkpt lat="43.38505" lon="5.94199">
        <ele>356.2</ele>
        <time>2015-05-13T07:55:32Z</time>
      </trkpt>
      <trkpt lat="43.38505" lon="5.942">
        <ele>355.7</ele>
        <time>2015-05-13T07:55:33Z</time>
      </trkpt>
      <trkpt lat="43.3851" lon="5.94245">
        <ele>348.2</ele>
        <time>2015-05-13T07:56:15Z</time>
      </trkpt>
      <trkpt lat="43.38517" lon="5.94268">
        <ele>352.1</ele>
        <time>2015-05-13T07:56:28Z</time>
      </trkpt>
      <trkpt lat="43.38526" lon="5.94289">
        <ele>357.5</ele>
        <time>2015-05-13T07:56:46Z</time>
      </trkpt>
      <trkpt lat="43.38526" lon="5.94289">
        <ele>358</ele>
        <time>2015-05-13T07:56:47Z</time>
      </trkpt>
      <trkpt lat="43.38536" lon="5.94334">
        <ele>359.7</ele>
        <time>2015-05-13T07:57:32Z</time>
      </trkpt>
      <trkpt lat="43.38536" lon="5.94358">
        <ele>352.6</ele>
        <time>2015-05-13T07:57:54Z</time>
      </trkpt>
      <trkpt lat="43.38536" lon="5.94359">
        <ele>351.7</ele>
        <time>2015-05-13T07:57:55Z</time>
      </trkpt>
      <trkpt lat="43.38544" lon="5.94405">
        <ele>343.3</ele>
        <time>2015-05-13T07:58:34Z</time>
      </trkpt>
      <trkpt lat="43.38539" lon="5.94428">
        <ele>342.7</ele>
        <time>2015-05-13T07:58:51Z</time>
      </trkpt>
      <trkpt lat="43.38545" lon="5.94451">
        <ele>340.5</ele>
        <time>2015-05-13T07:59:08Z</time>
      </trkpt>
      <trkpt lat="43.38545" lon="5.94453">
        <ele>340.5</ele>
        <time>2015-05-13T07:59:09Z</time>
      </trkpt>
      <trkpt lat="43.38547" lon="5.94499">
        <ele>342</ele>
        <time>2015-05-13T07:59:47Z</time>
      </trkpt>
      <trkpt lat="43.38547" lon="5.94523">
        <ele>354.8</ele>
        <time>2015-05-13T08:00:16Z</time>
      </trkpt>
      <trkpt lat="43.38547" lon="5.94524">
        <ele>354.7</ele>
        <time>2015-05-13T08:00:17Z</time>
      </trkpt>
      <trkpt lat="43.38551" lon="5.94548">
        <ele>376.7</ele>
        <time>2015-05-13T08:02:30Z</time>
      </trkpt>
      <trkpt lat="43.38548" lon="5.94572">
        <ele>364.1</ele>
        <time>2015-05-13T08:03:34Z</time>
      </trkpt>
      <trkpt lat="43.38531" lon="5.94613">
        <ele>363.7</ele>
        <time>2015-05-13T08:05:47Z</time>
      </trkpt>
      <trkpt lat="43.38531" lon="5.94614">
        <ele>363.3</ele>
        <time>2015-05-13T08:05:48Z</time>
      </trkpt>
      <trkpt lat="43.38514" lon="5.94654">
        <ele>360.3</ele>
        <time>2015-05-13T08:06:32Z</time>
      </trkpt>
      <trkpt lat="43.385" lon="5.94667">
        <ele>361</ele>
        <time>2015-05-13T08:06:48Z</time>
      </trkpt>
      <trkpt lat="43.38499" lon="5.94668">
        <ele>360.7</ele>
        <time>2015-05-13T08:06:49Z</time>
      </trkpt>
      <trkpt lat="43.38482" lon="5.94709">
        <ele>355.2</ele>
        <time>2015-05-13T08:07:26Z</time>
      </trkpt>
      <trkpt lat="43.38466" lon="5.94714">
        <ele>358.6</ele>
        <time>2015-05-13T08:07:42Z</time>
      </trkpt>
      <trkpt lat="43.38449" lon="5.94716">
        <ele>359.7</ele>
        <time>2015-05-13T08:07:58Z</time>
      </trkpt>
      <trkpt lat="43.38448" lon="5.94717">
        <ele>359.8</ele>
        <time>2015-05-13T08:07:59Z</time>
      </trkpt>
      <trkpt lat="43.38418" lon="5.94734">
        <ele>360.2</ele>
        <time>2015-05-13T08:08:40Z</time>
      </trkpt>
      <trkpt lat="43.38401" lon="5.94739">
        <ele>361.2</ele>
        <time>2015-05-13T08:09:01Z</time>
      </trkpt>
      <trkpt lat="43.384" lon="5.94739">
        <ele>361.3</ele>
        <time>2015-05-13T08:09:02Z</time>
      </trkpt>
      <trkpt lat="43.38367" lon="5.94746">
        <ele>360.6</ele>
        <time>2015-05-13T08:09:40Z</time>
      </trkpt>
      <trkpt lat="43.38355" lon="5.94764">
        <ele>359.8</ele>
        <time>2015-05-13T08:10:14Z</time>
      </trkpt>
      <trkpt lat="43.38354" lon="5.94765">
        <ele>359.8</ele>
        <time>2015-05-13T08:10:15Z</time>
      </trkpt>
      <trkpt lat="43.38332" lon="5.94801">
        <ele>355.2</ele>
        <time>2015-05-13T08:10:50Z</time>
      </trkpt>
      <trkpt lat="43.38323" lon="5.94822">
        <ele>354.7</ele>
        <time>2015-05-13T08:11:10Z</time>
      </trkpt>
      <trkpt lat="43.3832" lon="5.94846">
        <ele>351.5</ele>
        <time>2015-05-13T08:11:28Z</time>
      </trkpt>
      <trkpt lat="43.3832" lon="5.94847">
        <ele>351.2</ele>
        <time>2015-05-13T08:11:29Z</time>
      </trkpt>
      <trkpt lat="43.38325" lon="5.94894">
        <ele>350.7</ele>
        <time>2015-05-13T08:12:00Z</time>
      </trkpt>
      <trkpt lat="43.38332" lon="5.94916">
        <ele>353.1</ele>
        <time>2015-05-13T08:12:16Z</time>
      </trkpt>
      <trkpt lat="43.38341" lon="5.94937">
        <ele>349.5</ele>
        <time>2015-05-13T08:12:32Z</time>
      </trkpt>
      <trkpt lat="43.38341" lon="5.94938">
        <ele>349.2</ele>
        <time>2015-05-13T08:12:33Z</time>
      </trkpt>
      <trkpt lat="43.38359" lon="5.94978">
        <ele>346.8</ele>
        <time>2015-05-13T08:13:04Z</time>
      </trkpt>
      <trkpt lat="43.38371" lon="5.94996">
        <ele>347.7</ele>
        <time>2015-05-13T08:13:20Z</time>
      </trkpt>
      <trkpt lat="43.38377" lon="5.95019">
        <ele>345.2</ele>
        <time>2015-05-13T08:13:37Z</time>
      </trkpt>
      <trkpt lat="43.38376" lon="5.9502">
        <ele>345.1</ele>
        <time>2015-05-13T08:13:38Z</time>
      </trkpt>
      <trkpt lat="43.38361" lon="5.95062">
        <ele>339.7</ele>
        <time>2015-05-13T08:14:09Z</time>
      </trkpt>
      <trkpt lat="43.38355" lon="5.95084">
        <ele>339</ele>
        <time>2015-05-13T08:14:25Z</time>
      </trkpt>
      <trkpt lat="43.38356" lon="5.95108">
        <ele>339.5</ele>
        <time>2015-05-13T08:14:42Z</time>
      </trkpt>
      <trkpt lat="43.38356" lon="5.9511">
        <ele>339.3</ele>
        <time>2015-05-13T08:14:43Z</time>
      </trkpt>
      <trkpt lat="43.38349" lon="5.95112">
        <ele>345.3</ele>
        <time>2015-05-13T08:15:55Z</time>
      </trkpt>
      <trkpt lat="43.38348" lon="5.95111">
        <ele>345.3</ele>
        <time>2015-05-13T08:15:56Z</time>
      </trkpt>
      <trkpt lat="43.38338" lon="5.95091">
        <ele>348.2</ele>
        <time>2015-05-13T08:17:01Z</time>
      </trkpt>
      <trkpt lat="43.38304" lon="5.9508">
        <ele>343.5</ele>
        <time>2015-05-13T08:17:43Z</time>
      </trkpt>
      <trkpt lat="43.38286" lon="5.95077">
        <ele>343.3</ele>
        <time>2015-05-13T08:18:26Z</time>
      </trkpt>
      <trkpt lat="43.38286" lon="5.95077">
        <ele>343.7</ele>
        <time>2015-05-13T08:18:27Z</time>
      </trkpt>
      <trkpt lat="43.38286" lon="5.9508">
        <ele>341.1</ele>
        <time>2015-05-13T08:21:02Z</time>
      </trkpt>
      <trkpt lat="43.38287" lon="5.9508">
        <ele>341.5</ele>
        <time>2015-05-13T08:21:03Z</time>
      </trkpt>
      <trkpt lat="43.383" lon="5.95103">
        <ele>342.3</ele>
        <time>2015-05-13T08:22:35Z</time>
      </trkpt>
      <trkpt lat="43.383" lon="5.95104">
        <ele>342.2</ele>
        <time>2015-05-13T08:22:36Z</time>
      </trkpt>
      <trkpt lat="43.38274" lon="5.95136">
        <ele>338</ele>
        <time>2015-05-13T08:23:22Z</time>
      </trkpt>
      <trkpt lat="43.38261" lon="5.95153">
        <ele>338.2</ele>
        <time>2015-05-13T08:23:39Z</time>
      </trkpt>
      <trkpt lat="43.38261" lon="5.95154">
        <ele>338.6</ele>
        <time>2015-05-13T08:23:40Z</time>
      </trkpt>
      <trkpt lat="43.38245" lon="5.95196">
        <ele>331.2</ele>
        <time>2015-05-13T08:24:19Z</time>
      </trkpt>
      <trkpt lat="43.38237" lon="5.95217">
        <ele>338.2</ele>
        <time>2015-05-13T08:24:48Z</time>
      </trkpt>
      <trkpt lat="43.38237" lon="5.95218">
        <ele>338</ele>
        <time>2015-05-13T08:24:49Z</time>
      </trkpt>
      <trkpt lat="43.38225" lon="5.95236">
        <ele>338.1</ele>
        <time>2015-05-13T08:26:58Z</time>
      </trkpt>
      <trkpt lat="43.38203" lon="5.95274">
        <ele>328.3</ele>
        <time>2015-05-13T08:27:39Z</time>
      </trkpt>
      <trkpt lat="43.38198" lon="5.95296">
        <ele>326.8</ele>
        <time>2015-05-13T08:27:57Z</time>
      </trkpt>
      <trkpt lat="43.38194" lon="5.9532">
        <ele>326.5</ele>
        <time>2015-05-13T08:28:18Z</time>
      </trkpt>
      <trkpt lat="43.38194" lon="5.95321">
        <ele>326.3</ele>
        <time>2015-05-13T08:28:19Z</time>
      </trkpt>
      <trkpt lat="43.38193" lon="5.95368">
        <ele>323.3</ele>
        <time>2015-05-13T08:28:56Z</time>
      </trkpt>
      <trkpt lat="43.38201" lon="5.95389">
        <ele>321.1</ele>
        <time>2015-05-13T08:29:15Z</time>
      </trkpt>
      <trkpt lat="43.38206" lon="5.95412">
        <ele>317.3</ele>
        <time>2015-05-13T08:29:33Z</time>
      </trkpt>
      <trkpt lat="43.38207" lon="5.95413">
        <ele>317.2</ele>
        <time>2015-05-13T08:29:34Z</time>
      </trkpt>
      <trkpt lat="43.3822" lon="5.95457">
        <ele>317.8</ele>
        <time>2015-05-13T08:30:06Z</time>
      </trkpt>
      <trkpt lat="43.38229" lon="5.95477">
        <ele>315.7</ele>
        <time>2015-05-13T08:30:25Z</time>
      </trkpt>
      <trkpt lat="43.38241" lon="5.95495">
        <ele>315.2</ele>
        <time>2015-05-13T08:30:43Z</time>
      </trkpt>
      <trkpt lat="43.38242" lon="5.95497">
        <ele>316.7</ele>
        <time>2015-05-13T08:30:44Z</time>
      </trkpt>
      <trkpt lat="43.3826" lon="5.95535">
        <ele>312.8</ele>
        <time>2015-05-13T08:31:18Z</time>
      </trkpt>
      <trkpt lat="43.38272" lon="5.95554">
        <ele>314.7</ele>
        <time>2015-05-13T08:31:34Z</time>
      </trkpt>
      <trkpt lat="43.38281" lon="5.95573">
        <ele>321.1</ele>
        <time>2015-05-13T08:31:50Z</time>
      </trkpt>
      <trkpt lat="43.38282" lon="5.95574">
        <ele>320.7</ele>
        <time>2015-05-13T08:31:51Z</time>
      </trkpt>
      <trkpt lat="43.38273" lon="5.95615">
        <ele>329.5</ele>
        <time>2015-05-13T08:44:57Z</time>
      </trkpt>
      <trkpt lat="43.38272" lon="5.95616">
        <ele>329.5</ele>
        <time>2015-05-13T08:44:58Z</time>
      </trkpt>
      <trkpt lat="43.38249" lon="5.9565">
        <ele>333.7</ele>
        <time>2015-05-13T08:45:33Z</time>
      </trkpt>
      <trkpt lat="43.38232" lon="5.95655">
        <ele>328.5</ele>
        <time>2015-05-13T08:45:52Z</time>
      </trkpt>
      <trkpt lat="43.38215" lon="5.95648">
        <ele>325.6</ele>
        <time>2015-05-13T08:46:08Z</time>
      </trkpt>
      <trkpt lat="43.38214" lon="5.95648">
        <ele>324.8</ele>
        <time>2015-05-13T08:46:09Z</time>
      </trkpt>
      <trkpt lat="43.38186" lon="5.95671">
        <ele>329.3</ele>
        <time>2015-05-13T08:46:43Z</time>
      </trkpt>
      <trkpt lat="43.38173" lon="5.95687">
        <ele>328</ele>
        <time>2015-05-13T08:47:06Z</time>
      </trkpt>
      <trkpt lat="43.38161" lon="5.95705">
        <ele>334.7</ele>
        <time>2015-05-13T08:47:50Z</time>
      </trkpt>
      <trkpt lat="43.38161" lon="5.95706">
        <ele>334.6</ele>
        <time>2015-05-13T08:47:51Z</time>
      </trkpt>
      <trkpt lat="43.38131" lon="5.95728">
        <ele>328.7</ele>
        <time>2015-05-13T08:48:39Z</time>
      </trkpt>
      <trkpt lat="43.38117" lon="5.95742">
        <ele>331.6</ele>
        <time>2015-05-13T08:49:04Z</time>
      </trkpt>
      <trkpt lat="43.38116" lon="5.95742">
        <ele>330.3</ele>
        <time>2015-05-13T08:49:05Z</time>
      </trkpt>
      <trkpt lat="43.38086" lon="5.95754">
        <ele>326.3</ele>
        <time>2015-05-13T08:49:45Z</time>
      </trkpt>
      <trkpt lat="43.38069" lon="5.95745">
        <ele>325</ele>
        <time>2015-05-13T08:50:08Z</time>
      </trkpt>
      <trkpt lat="43.38069" lon="5.95745">
        <ele>324.8</ele>
        <time>2015-05-13T08:50:09Z</time>
      </trkpt>
      <trkpt lat="43.38038" lon="5.95733">
        <ele>334.5</ele>
        <time>2015-05-13T08:50:52Z</time>
      </trkpt>
      <trkpt lat="43.38021" lon="5.95741">
        <ele>336.1</ele>
        <time>2015-05-13T08:51:16Z</time>
      </trkpt>
      <trkpt lat="43.38021" lon="5.95742">
        <ele>337.6</ele>
        <time>2015-05-13T08:51:17Z</time>
      </trkpt>
      <trkpt lat="43.38009" lon="5.95787">
        <ele>355.8</ele>
        <time>2015-05-13T08:52:15Z</time>
      </trkpt>
      <trkpt lat="43.38004" lon="5.9581">
        <ele>359</ele>
        <time>2015-05-13T08:52:40Z</time>
      </trkpt>
      <trkpt lat="43.38003" lon="5.95811">
        <ele>359.7</ele>
        <time>2015-05-13T08:52:41Z</time>
      </trkpt>
      <trkpt lat="43.37973" lon="5.95829">
        <ele>363.3</ele>
        <time>2015-05-13T08:53:34Z</time>
      </trkpt>
      <trkpt lat="43.37965" lon="5.95851">
        <ele>370.7</ele>
        <time>2015-05-13T08:54:02Z</time>
      </trkpt>
      <trkpt lat="43.37966" lon="5.95852">
        <ele>371.6</ele>
        <time>2015-05-13T08:54:03Z</time>
      </trkpt>
      <trkpt lat="43.37937" lon="5.95851">
        <ele>371</ele>
        <time>2015-05-13T08:54:54Z</time>
      </trkpt>
      <trkpt lat="43.37921" lon="5.9584">
        <ele>376.3</ele>
        <time>2015-05-13T08:55:23Z</time>
      </trkpt>
      <trkpt lat="43.3792" lon="5.9584">
        <ele>376.2</ele>
        <time>2015-05-13T08:55:24Z</time>
      </trkpt>
      <trkpt lat="43.37898" lon="5.95803">
        <ele>378.2</ele>
        <time>2015-05-13T08:56:18Z</time>
      </trkpt>
      <trkpt lat="43.3789" lon="5.95781">
        <ele>390.3</ele>
        <time>2015-05-13T08:59:34Z</time>
      </trkpt>
      <trkpt lat="43.37889" lon="5.9578">
        <ele>390.8</ele>
        <time>2015-05-13T08:59:35Z</time>
      </trkpt>
      <trkpt lat="43.37882" lon="5.95735">
        <ele>379.6</ele>
        <time>2015-05-13T09:00:14Z</time>
      </trkpt>
      <trkpt lat="43.37874" lon="5.95715">
        <ele>377.5</ele>
        <time>2015-05-13T09:00:33Z</time>
      </trkpt>
      <trkpt lat="43.37857" lon="5.95715">
        <ele>371.7</ele>
        <time>2015-05-13T09:00:54Z</time>
      </trkpt>
      <trkpt lat="43.37856" lon="5.95715">
        <ele>373.2</ele>
        <time>2015-05-13T09:00:55Z</time>
      </trkpt>
      <trkpt lat="43.37822" lon="5.95714">
        <ele>380.8</ele>
        <time>2015-05-13T09:01:30Z</time>
      </trkpt>
      <trkpt lat="43.37805" lon="5.95719">
        <ele>389.1</ele>
        <time>2015-05-13T09:01:50Z</time>
      </trkpt>
      <trkpt lat="43.37794" lon="5.95738">
        <ele>390.2</ele>
        <time>2015-05-13T09:02:08Z</time>
      </trkpt>
      <trkpt lat="43.37793" lon="5.95738">
        <ele>390.3</ele>
        <time>2015-05-13T09:02:09Z</time>
      </trkpt>
      <trkpt lat="43.37765" lon="5.95767">
        <ele>405</ele>
        <time>2015-05-13T09:02:50Z</time>
      </trkpt>
      <trkpt lat="43.37753" lon="5.95784">
        <ele>404.2</ele>
        <time>2015-05-13T09:03:13Z</time>
      </trkpt>
      <trkpt lat="43.37752" lon="5.95785">
        <ele>403.7</ele>
        <time>2015-05-13T09:03:14Z</time>
      </trkpt>
      <trkpt lat="43.37738" lon="5.95828">
        <ele>404.7</ele>
        <time>2015-05-13T09:04:04Z</time>
      </trkpt>
      <trkpt lat="43.37727" lon="5.95847">
        <ele>417.2</ele>
        <time>2015-05-13T09:04:39Z</time>
      </trkpt>
      <trkpt lat="43.37727" lon="5.95847">
        <ele>418</ele>
        <time>2015-05-13T09:04:40Z</time>
      </trkpt>
      <trkpt lat="43.37712" lon="5.95891">
        <ele>432.7</ele>
        <time>2015-05-13T09:05:38Z</time>
      </trkpt>
      <trkpt lat="43.377" lon="5.95907">
        <ele>443.7</ele>
        <time>2015-05-13T09:06:02Z</time>
      </trkpt>
      <trkpt lat="43.37699" lon="5.95907">
        <ele>444.2</ele>
        <time>2015-05-13T09:06:03Z</time>
      </trkpt>
      <trkpt lat="43.37666" lon="5.95921">
        <ele>428.7</ele>
        <time>2015-05-13T09:06:39Z</time>
      </trkpt>
      <trkpt lat="43.37649" lon="5.95928">
        <ele>430.8</ele>
        <time>2015-05-13T09:06:59Z</time>
      </trkpt>
      <trkpt lat="43.37633" lon="5.95938">
        <ele>434.7</ele>
        <time>2015-05-13T09:07:24Z</time>
      </trkpt>
      <trkpt lat="43.37632" lon="5.95939">
        <ele>434.2</ele>
        <time>2015-05-13T09:07:25Z</time>
      </trkpt>
      <trkpt lat="43.37609" lon="5.95971">
        <ele>429.5</ele>
        <time>2015-05-13T09:08:02Z</time>
      </trkpt>
      <trkpt lat="43.37595" lon="5.95983">
        <ele>433.8</ele>
        <time>2015-05-13T09:08:22Z</time>
      </trkpt>
      <trkpt lat="43.37578" lon="5.95992">
        <ele>426.8</ele>
        <time>2015-05-13T09:08:44Z</time>
      </trkpt>
      <trkpt lat="43.37578" lon="5.95992">
        <ele>427</ele>
        <time>2015-05-13T09:08:45Z</time>
      </trkpt>
      <trkpt lat="43.37543" lon="5.95995">
        <ele>417.5</ele>
        <time>2015-05-13T09:09:29Z</time>
      </trkpt>
      <trkpt lat="43.37526" lon="5.95992">
        <ele>408.5</ele>
        <time>2015-05-13T09:15:22Z</time>
      </trkpt>
      <trkpt lat="43.37525" lon="5.95991">
        <ele>407.8</ele>
        <time>2015-05-13T09:15:23Z</time>
      </trkpt>
      <trkpt lat="43.37503" lon="5.95955">
        <ele>418.2</ele>
        <time>2015-05-13T09:15:59Z</time>
      </trkpt>
      <trkpt lat="43.37492" lon="5.95936">
        <ele>421.6</ele>
        <time>2015-05-13T09:16:18Z</time>
      </trkpt>
      <trkpt lat="43.37482" lon="5.95917">
        <ele>428.1</ele>
        <time>2015-05-13T09:16:37Z</time>
      </trkpt>
      <trkpt lat="43.37481" lon="5.95916">
        <ele>428.2</ele>
        <time>2015-05-13T09:16:38Z</time>
      </trkpt>
      <trkpt lat="43.37454" lon="5.95887">
        <ele>437.2</ele>
        <time>2015-05-13T09:17:17Z</time>
      </trkpt>
      <trkpt lat="43.37436" lon="5.95883">
        <ele>427.3</ele>
        <time>2015-05-13T09:17:37Z</time>
      </trkpt>
      <trkpt lat="43.37419" lon="5.95877">
        <ele>421.8</ele>
        <time>2015-05-13T09:17:54Z</time>
      </trkpt>
      <trkpt lat="43.37418" lon="5.95877">
        <ele>421.8</ele>
        <time>2015-05-13T09:17:55Z</time>
      </trkpt>
      <trkpt lat="43.37388" lon="5.95853">
        <ele>431.3</ele>
        <time>2015-05-13T09:18:27Z</time>
      </trkpt>
      <trkpt lat="43.37375" lon="5.95838">
        <ele>432.3</ele>
        <time>2015-05-13T09:18:44Z</time>
      </trkpt>
      <trkpt lat="43.37361" lon="5.95823">
        <ele>427</ele>
        <time>2015-05-13T09:19:02Z</time>
      </trkpt>
      <trkpt lat="43.3736" lon="5.95821">
        <ele>427.2</ele>
        <time>2015-05-13T09:19:03Z</time>
      </trkpt>
      <trkpt lat="43.37337" lon="5.95788">
        <ele>446.3</ele>
        <time>2015-05-13T09:19:34Z</time>
      </trkpt>
      <trkpt lat="43.37323" lon="5.95773">
        <ele>439</ele>
        <time>2015-05-13T09:19:54Z</time>
      </trkpt>
      <trkpt lat="43.3731" lon="5.95756">
        <ele>446.3</ele>
        <time>2015-05-13T09:20:14Z</time>
      </trkpt>
      <trkpt lat="43.3731" lon="5.95755">
        <ele>446.5</ele>
        <time>2015-05-13T09:20:15Z</time>
      </trkpt>
      <trkpt lat="43.37288" lon="5.95719">
        <ele>443.7</ele>
        <time>2015-05-13T09:20:50Z</time>
      </trkpt>
      <trkpt lat="43.3728" lon="5.95697">
        <ele>450.3</ele>
        <time>2015-05-13T09:21:06Z</time>
      </trkpt>
      <trkpt lat="43.37272" lon="5.95677">
        <ele>445.7</ele>
        <time>2015-05-13T09:21:23Z</time>
      </trkpt>
      <trkpt lat="43.37272" lon="5.95675">
        <ele>446.6</ele>
        <time>2015-05-13T09:21:24Z</time>
      </trkpt>
      <trkpt lat="43.37261" lon="5.95631">
        <ele>460.2</ele>
        <time>2015-05-13T09:21:59Z</time>
      </trkpt>
      <trkpt lat="43.37267" lon="5.95609">
        <ele>453.7</ele>
        <time>2015-05-13T09:22:18Z</time>
      </trkpt>
      <trkpt lat="43.37271" lon="5.95586">
        <ele>450.8</ele>
        <time>2015-05-13T09:22:36Z</time>
      </trkpt>
      <trkpt lat="43.3727" lon="5.95584">
        <ele>451.7</ele>
        <time>2015-05-13T09:22:37Z</time>
      </trkpt>
      <trkpt lat="43.37249" lon="5.95551">
        <ele>448.1</ele>
        <time>2015-05-13T09:23:06Z</time>
      </trkpt>
      <trkpt lat="43.37238" lon="5.95532">
        <ele>467</ele>
        <time>2015-05-13T09:23:21Z</time>
      </trkpt>
      <trkpt lat="43.37226" lon="5.95515">
        <ele>458</ele>
        <time>2015-05-13T09:23:37Z</time>
      </trkpt>
      <trkpt lat="43.37225" lon="5.95514">
        <ele>456.8</ele>
        <time>2015-05-13T09:23:38Z</time>
      </trkpt>
      <trkpt lat="43.37204" lon="5.95477">
        <ele>449.5</ele>
        <time>2015-05-13T09:24:12Z</time>
      </trkpt>
      <trkpt lat="43.37191" lon="5.95461">
        <ele>451.2</ele>
        <time>2015-05-13T09:24:28Z</time>
      </trkpt>
      <trkpt lat="43.3718" lon="5.95442">
        <ele>458.2</ele>
        <time>2015-05-13T09:24:49Z</time>
      </trkpt>
      <trkpt lat="43.37179" lon="5.95442">
        <ele>457.7</ele>
        <time>2015-05-13T09:24:50Z</time>
      </trkpt>
      <trkpt lat="43.3715" lon="5.95418">
        <ele>457.1</ele>
        <time>2015-05-13T09:25:24Z</time>
      </trkpt>
      <trkpt lat="43.37138" lon="5.954">
        <ele>457.2</ele>
        <time>2015-05-13T09:25:38Z</time>
      </trkpt>
      <trkpt lat="43.3713" lon="5.95379">
        <ele>453.1</ele>
        <time>2015-05-13T09:25:54Z</time>
      </trkpt>
      <trkpt lat="43.37129" lon="5.95377">
        <ele>453</ele>
        <time>2015-05-13T09:25:55Z</time>
      </trkpt>
      <trkpt lat="43.37113" lon="5.95338">
        <ele>449.1</ele>
        <time>2015-05-13T09:26:29Z</time>
      </trkpt>
      <trkpt lat="43.37096" lon="5.95333">
        <ele>446.3</ele>
        <time>2015-05-13T09:27:31Z</time>
      </trkpt>
      <trkpt lat="43.37095" lon="5.95333">
        <ele>446.3</ele>
        <time>2015-05-13T09:27:32Z</time>
      </trkpt>
      <trkpt lat="43.37094" lon="5.95373">
        <ele>442.5</ele>
        <time>2015-05-13T09:28:40Z</time>
      </trkpt>
      <trkpt lat="43.37094" lon="5.95375">
        <ele>442.7</ele>
        <time>2015-05-13T09:28:41Z</time>
      </trkpt>
      <trkpt lat="43.37086" lon="5.9535">
        <ele>441.2</ele>
        <time>2015-05-13T09:30:19Z</time>
      </trkpt>
      <trkpt lat="43.37074" lon="5.95306">
        <ele>440.3</ele>
        <time>2015-05-13T09:30:56Z</time>
      </trkpt>
      <trkpt lat="43.37076" lon="5.95283">
        <ele>437.7</ele>
        <time>2015-05-13T09:31:13Z</time>
      </trkpt>
      <trkpt lat="43.37087" lon="5.95263">
        <ele>431.3</ele>
        <time>2015-05-13T09:31:34Z</time>
      </trkpt>
      <trkpt lat="43.37087" lon="5.95262">
        <ele>430.8</ele>
        <time>2015-05-13T09:31:35Z</time>
      </trkpt>
      <trkpt lat="43.37085" lon="5.9522">
        <ele>432</ele>
        <time>2015-05-13T09:32:13Z</time>
      </trkpt>
      <trkpt lat="43.37074" lon="5.95202">
        <ele>434.3</ele>
        <time>2015-05-13T09:32:32Z</time>
      </trkpt>
      <trkpt lat="43.37057" lon="5.95195">
        <ele>437</ele>
        <time>2015-05-13T09:32:49Z</time>
      </trkpt>
      <trkpt lat="43.37056" lon="5.95194">
        <ele>437.1</ele>
        <time>2015-05-13T09:32:50Z</time>
      </trkpt>
      <trkpt lat="43.37037" lon="5.95155">
        <ele>432</ele>
        <time>2015-05-13T09:33:19Z</time>
      </trkpt>
      <trkpt lat="43.37025" lon="5.95138">
        <ele>432.1</ele>
        <time>2015-05-13T09:33:34Z</time>
      </trkpt>
      <trkpt lat="43.37016" lon="5.95118">
        <ele>431.5</ele>
        <time>2015-05-13T09:33:49Z</time>
      </trkpt>
      <trkpt lat="43.37008" lon="5.95098">
        <ele>431.1</ele>
        <time>2015-05-13T09:34:04Z</time>
      </trkpt>
      <trkpt lat="43.37007" lon="5.95096">
        <ele>430.8</ele>
        <time>2015-05-13T09:34:05Z</time>
      </trkpt>
      <trkpt lat="43.37009" lon="5.95053">
        <ele>426.7</ele>
        <time>2015-05-13T09:34:36Z</time>
      </trkpt>
      <trkpt lat="43.37018" lon="5.95033">
        <ele>426.3</ele>
        <time>2015-05-13T09:34:55Z</time>
      </trkpt>
      <trkpt lat="43.37024" lon="5.95011">
        <ele>428.6</ele>
        <time>2015-05-13T09:35:11Z</time>
      </trkpt>
      <trkpt lat="43.37024" lon="5.95009">
        <ele>428.7</ele>
        <time>2015-05-13T09:35:12Z</time>
      </trkpt>
      <trkpt lat="43.37042" lon="5.9497">
        <ele>422.3</ele>
        <time>2015-05-13T09:35:50Z</time>
      </trkpt>
      <trkpt lat="43.37051" lon="5.9495">
        <ele>418</ele>
        <time>2015-05-13T09:36:09Z</time>
      </trkpt>
      <trkpt lat="43.37063" lon="5.94932">
        <ele>418.8</ele>
        <time>2015-05-13T09:36:27Z</time>
      </trkpt>
      <trkpt lat="43.37063" lon="5.9493">
        <ele>418.5</ele>
        <time>2015-05-13T09:36:28Z</time>
      </trkpt>
      <trkpt lat="43.37092" lon="5.94906">
        <ele>422.1</ele>
        <time>2015-05-13T09:37:07Z</time>
      </trkpt>
      <trkpt lat="43.37108" lon="5.94895">
        <ele>420.6</ele>
        <time>2015-05-13T09:37:27Z</time>
      </trkpt>
      <trkpt lat="43.37124" lon="5.94884">
        <ele>423</ele>
        <time>2015-05-13T09:37:44Z</time>
      </trkpt>
      <trkpt lat="43.37124" lon="5.94883">
        <ele>422.8</ele>
        <time>2015-05-13T09:37:45Z</time>
      </trkpt>
      <trkpt lat="43.37136" lon="5.94839">
        <ele>408.1</ele>
        <time>2015-05-13T09:38:22Z</time>
      </trkpt>
      <trkpt lat="43.37137" lon="5.94815">
        <ele>411.2</ele>
        <time>2015-05-13T09:38:38Z</time>
      </trkpt>
      <trkpt lat="43.37136" lon="5.9479">
        <ele>411.2</ele>
        <time>2015-05-13T09:38:52Z</time>
      </trkpt>
      <trkpt lat="43.37135" lon="5.94788">
        <ele>411.1</ele>
        <time>2015-05-13T09:38:53Z</time>
      </trkpt>
      <trkpt lat="43.37132" lon="5.94742">
        <ele>408.8</ele>
        <time>2015-05-13T09:39:23Z</time>
      </trkpt>
      <trkpt lat="43.37128" lon="5.94719">
        <ele>405</ele>
        <time>2015-05-13T09:39:39Z</time>
      </trkpt>
      <trkpt lat="43.37126" lon="5.94696">
        <ele>395.5</ele>
        <time>2015-05-13T09:39:58Z</time>
      </trkpt>
      <trkpt lat="43.37126" lon="5.94694">
        <ele>395</ele>
        <time>2015-05-13T09:39:59Z</time>
      </trkpt>
      <trkpt lat="43.3712" lon="5.94649">
        <ele>371.7</ele>
        <time>2015-05-13T09:40:49Z</time>
      </trkpt>
      <trkpt lat="43.37111" lon="5.94628">
        <ele>371.1</ele>
        <time>2015-05-13T09:41:07Z</time>
      </trkpt>
      <trkpt lat="43.37111" lon="5.94627">
        <ele>370.6</ele>
        <time>2015-05-13T09:41:08Z</time>
      </trkpt>
      <trkpt lat="43.37091" lon="5.94589">
        <ele>346.7</ele>
        <time>2015-05-13T09:41:44Z</time>
      </trkpt>
      <trkpt lat="43.37079" lon="5.94573">
        <ele>348</ele>
        <time>2015-05-13T09:41:58Z</time>
      </trkpt>
      <trkpt lat="43.37065" lon="5.94557">
        <ele>350.1</ele>
        <time>2015-05-13T09:42:13Z</time>
      </trkpt>
      <trkpt lat="43.37064" lon="5.94557">
        <ele>350.6</ele>
        <time>2015-05-13T09:42:14Z</time>
      </trkpt>
      <trkpt lat="43.37038" lon="5.94529">
        <ele>356.1</ele>
        <time>2015-05-13T09:42:39Z</time>
      </trkpt>
      <trkpt lat="43.37025" lon="5.94514">
        <ele>356.3</ele>
        <time>2015-05-13T09:42:54Z</time>
      </trkpt>
      <trkpt lat="43.37011" lon="5.945">
        <ele>364.5</ele>
        <time>2015-05-13T09:43:06Z</time>
      </trkpt>
      <trkpt lat="43.36995" lon="5.9449">
        <ele>368.1</ele>
        <time>2015-05-13T09:43:20Z</time>
      </trkpt>
      <trkpt lat="43.36994" lon="5.9449">
        <ele>368.1</ele>
        <time>2015-05-13T09:43:21Z</time>
      </trkpt>
      <trkpt lat="43.36966" lon="5.94472">
        <ele>379.7</ele>
        <time>2015-05-13T09:43:47Z</time>
      </trkpt>
      <trkpt lat="43.36952" lon="5.94459">
        <ele>391.3</ele>
        <time>2015-05-13T09:43:59Z</time>
      </trkpt>
      <trkpt lat="43.36934" lon="5.94454">
        <ele>399.5</ele>
        <time>2015-05-13T09:44:15Z</time>
      </trkpt>
      <trkpt lat="43.36924" lon="5.94435">
        <ele>408.3</ele>
        <time>2015-05-13T09:44:43Z</time>
      </trkpt>
      <trkpt lat="43.36924" lon="5.94434">
        <ele>408.2</ele>
        <time>2015-05-13T09:44:44Z</time>
      </trkpt>
      <trkpt lat="43.36924" lon="5.9441">
        <ele>411.7</ele>
        <time>2015-05-13T09:58:55Z</time>
      </trkpt>
      <trkpt lat="43.3692" lon="5.94365">
        <ele>409.2</ele>
        <time>2015-05-13T09:59:26Z</time>
      </trkpt>
      <trkpt lat="43.36917" lon="5.9434">
        <ele>408.1</ele>
        <time>2015-05-13T09:59:41Z</time>
      </trkpt>
      <trkpt lat="43.36916" lon="5.94316">
        <ele>407</ele>
        <time>2015-05-13T09:59:56Z</time>
      </trkpt>
      <trkpt lat="43.36916" lon="5.94314">
        <ele>406.8</ele>
        <time>2015-05-13T09:59:57Z</time>
      </trkpt>
      <trkpt lat="43.36919" lon="5.94268">
        <ele>405.7</ele>
        <time>2015-05-13T10:00:25Z</time>
      </trkpt>
      <trkpt lat="43.36919" lon="5.94245">
        <ele>405.8</ele>
        <time>2015-05-13T10:00:38Z</time>
      </trkpt>
      <trkpt lat="43.36916" lon="5.94221">
        <ele>405.6</ele>
        <time>2015-05-13T10:00:53Z</time>
      </trkpt>
      <trkpt lat="43.36914" lon="5.94197">
        <ele>405.1</ele>
        <time>2015-05-13T10:01:07Z</time>
      </trkpt>
      <trkpt lat="43.36913" lon="5.94195">
        <ele>405.2</ele>
        <time>2015-05-13T10:01:08Z</time>
      </trkpt>
      <trkpt lat="43.36909" lon="5.94149">
        <ele>406.2</ele>
        <time>2015-05-13T10:01:37Z</time>
      </trkpt>
      <trkpt lat="43.369" lon="5.94128">
        <ele>405.7</ele>
        <time>2015-05-13T10:01:58Z</time>
      </trkpt>
      <trkpt lat="43.36897" lon="5.94105">
        <ele>404.6</ele>
        <time>2015-05-13T10:02:13Z</time>
      </trkpt>
      <trkpt lat="43.36897" lon="5.94103">
        <ele>404.7</ele>
        <time>2015-05-13T10:02:14Z</time>
      </trkpt>
      <trkpt lat="43.36895" lon="5.94059">
        <ele>405.5</ele>
        <time>2015-05-13T10:02:40Z</time>
      </trkpt>
      <trkpt lat="43.36892" lon="5.94034">
        <ele>406</ele>
        <time>2015-05-13T10:02:54Z</time>
      </trkpt>
      <trkpt lat="43.36891" lon="5.9401">
        <ele>403.8</ele>
        <time>2015-05-13T10:03:09Z</time>
      </trkpt>
      <trkpt lat="43.36888" lon="5.93985">
        <ele>401.7</ele>
        <time>2015-05-13T10:03:24Z</time>
      </trkpt>
      <trkpt lat="43.36888" lon="5.93984">
        <ele>401.6</ele>
        <time>2015-05-13T10:03:25Z</time>
      </trkpt>
      <trkpt lat="43.36883" lon="5.93938">
        <ele>399.5</ele>
        <time>2015-05-13T10:03:54Z</time>
      </trkpt>
      <trkpt lat="43.36881" lon="5.93914">
        <ele>399.7</ele>
        <time>2015-05-13T10:04:08Z</time>
      </trkpt>
      <trkpt lat="43.36879" lon="5.9389">
        <ele>400</ele>
        <time>2015-05-13T10:04:22Z</time>
      </trkpt>
      <trkpt lat="43.36877" lon="5.93866">
        <ele>402.5</ele>
        <time>2015-05-13T10:04:35Z</time>
      </trkpt>
      <trkpt lat="43.36877" lon="5.93864">
        <ele>402.7</ele>
        <time>2015-05-13T10:04:36Z</time>
      </trkpt>
      <trkpt lat="43.36872" lon="5.93819">
        <ele>403.6</ele>
        <time>2015-05-13T10:05:02Z</time>
      </trkpt>
      <trkpt lat="43.36872" lon="5.93796">
        <ele>402.7</ele>
        <time>2015-05-13T10:05:16Z</time>
      </trkpt>
      <trkpt lat="43.36873" lon="5.93772">
        <ele>402.2</ele>
        <time>2015-05-13T10:05:30Z</time>
      </trkpt>
      <trkpt lat="43.36876" lon="5.93749">
        <ele>402.7</ele>
        <time>2015-05-13T10:05:44Z</time>
      </trkpt>
      <trkpt lat="43.36876" lon="5.93747">
        <ele>402.7</ele>
        <time>2015-05-13T10:05:45Z</time>
      </trkpt>
      <trkpt lat="43.36879" lon="5.93702">
        <ele>402.7</ele>
        <time>2015-05-13T10:06:10Z</time>
      </trkpt>
      <trkpt lat="43.36875" lon="5.93679">
        <ele>401.7</ele>
        <time>2015-05-13T10:06:25Z</time>
      </trkpt>
      <trkpt lat="43.3687" lon="5.93655">
        <ele>401.7</ele>
        <time>2015-05-13T10:06:38Z</time>
      </trkpt>
      <trkpt lat="43.36869" lon="5.9363">
        <ele>400.6</ele>
        <time>2015-05-13T10:06:53Z</time>
      </trkpt>
      <trkpt lat="43.36869" lon="5.93628">
        <ele>401</ele>
        <time>2015-05-13T10:06:54Z</time>
      </trkpt>
      <trkpt lat="43.3687" lon="5.93584">
        <ele>401.3</ele>
        <time>2015-05-13T10:07:19Z</time>
      </trkpt>
      <trkpt lat="43.36865" lon="5.93561">
        <ele>400.5</ele>
        <time>2015-05-13T10:07:33Z</time>
      </trkpt>
      <trkpt lat="43.36865" lon="5.93537">
        <ele>398.6</ele>
        <time>2015-05-13T10:07:48Z</time>
      </trkpt>
      <trkpt lat="43.36874" lon="5.93516">
        <ele>397.2</ele>
        <time>2015-05-13T10:08:03Z</time>
      </trkpt>
      <trkpt lat="43.36875" lon="5.93514">
        <ele>397.2</ele>
        <time>2015-05-13T10:08:04Z</time>
      </trkpt>
      <trkpt lat="43.36889" lon="5.93474">
        <ele>396.2</ele>
        <time>2015-05-13T10:08:30Z</time>
      </trkpt>
      <trkpt lat="43.36897" lon="5.93452">
        <ele>397.7</ele>
        <time>2015-05-13T10:08:45Z</time>
      </trkpt>
      <trkpt lat="43.36904" lon="5.93429">
        <ele>397.5</ele>
        <time>2015-05-13T10:08:58Z</time>
      </trkpt>
      <trkpt lat="43.36907" lon="5.93406">
        <ele>398.7</ele>
        <time>2015-05-13T10:09:11Z</time>
      </trkpt>
      <trkpt lat="43.36907" lon="5.93404">
        <ele>398.7</ele>
        <time>2015-05-13T10:09:12Z</time>
      </trkpt>
      <trkpt lat="43.36912" lon="5.93358">
        <ele>397.5</ele>
        <time>2015-05-13T10:09:41Z</time>
      </trkpt>
      <trkpt lat="43.36918" lon="5.93335">
        <ele>396.1</ele>
        <time>2015-05-13T10:09:56Z</time>
      </trkpt>
      <trkpt lat="43.36926" lon="5.93313">
        <ele>394.7</ele>
        <time>2015-05-13T10:10:12Z</time>
      </trkpt>
      <trkpt lat="43.36926" lon="5.93312">
        <ele>394.2</ele>
        <time>2015-05-13T10:10:13Z</time>
      </trkpt>
      <trkpt lat="43.36936" lon="5.93268">
        <ele>394.2</ele>
        <time>2015-05-13T10:10:40Z</time>
      </trkpt>
      <trkpt lat="43.36938" lon="5.93244">
        <ele>393.2</ele>
        <time>2015-05-13T10:10:54Z</time>
      </trkpt>
      <trkpt lat="43.36942" lon="5.93221">
        <ele>392.2</ele>
        <time>2015-05-13T10:11:09Z</time>
      </trkpt>
      <trkpt lat="43.36945" lon="5.93196">
        <ele>390.1</ele>
        <time>2015-05-13T10:11:24Z</time>
      </trkpt>
      <trkpt lat="43.36946" lon="5.93195">
        <ele>390.2</ele>
        <time>2015-05-13T10:11:25Z</time>
      </trkpt>
      <trkpt lat="43.36951" lon="5.93149">
        <ele>392.2</ele>
        <time>2015-05-13T10:11:53Z</time>
      </trkpt>
      <trkpt lat="43.36955" lon="5.93125">
        <ele>391.1</ele>
        <time>2015-05-13T10:12:07Z</time>
      </trkpt>
      <trkpt lat="43.36957" lon="5.93101">
        <ele>389.3</ele>
        <time>2015-05-13T10:12:21Z</time>
      </trkpt>
      <trkpt lat="43.3696" lon="5.93078">
        <ele>388.8</ele>
        <time>2015-05-13T10:12:34Z</time>
      </trkpt>
      <trkpt lat="43.3696" lon="5.93076">
        <ele>389.6</ele>
        <time>2015-05-13T10:12:35Z</time>
      </trkpt>
      <trkpt lat="43.36965" lon="5.93031">
        <ele>391.7</ele>
        <time>2015-05-13T10:13:03Z</time>
      </trkpt>
      <trkpt lat="43.36968" lon="5.93008">
        <ele>389.8</ele>
        <time>2015-05-13T10:13:16Z</time>
      </trkpt>
      <trkpt lat="43.36969" lon="5.92984">
        <ele>391.2</ele>
        <time>2015-05-13T10:13:30Z</time>
      </trkpt>
      <trkpt lat="43.36958" lon="5.92965">
        <ele>387</ele>
        <time>2015-05-13T10:13:47Z</time>
      </trkpt>
      <trkpt lat="43.36957" lon="5.92964">
        <ele>386.7</ele>
        <time>2015-05-13T10:13:48Z</time>
      </trkpt>
      <trkpt lat="43.36927" lon="5.92945">
        <ele>380.7</ele>
        <time>2015-05-13T10:14:21Z</time>
      </trkpt>
      <trkpt lat="43.3691" lon="5.92944">
        <ele>382.7</ele>
        <time>2015-05-13T10:14:35Z</time>
      </trkpt>
      <trkpt lat="43.36893" lon="5.9294">
        <ele>381.5</ele>
        <time>2015-05-13T10:14:51Z</time>
      </trkpt>
      <trkpt lat="43.36892" lon="5.92939">
        <ele>381.1</ele>
        <time>2015-05-13T10:14:52Z</time>
      </trkpt>
      <trkpt lat="43.36859" lon="5.92932">
        <ele>380.1</ele>
        <time>2015-05-13T10:15:21Z</time>
      </trkpt>
      <trkpt lat="43.36841" lon="5.92927">
        <ele>380.5</ele>
        <time>2015-05-13T10:15:35Z</time>
      </trkpt>
      <trkpt lat="43.36825" lon="5.92926">
        <ele>382</ele>
        <time>2015-05-13T10:15:48Z</time>
      </trkpt>
      <trkpt lat="43.36808" lon="5.92926">
        <ele>384.2</ele>
        <time>2015-05-13T10:16:00Z</time>
      </trkpt>
      <trkpt lat="43.36806" lon="5.92926">
        <ele>384.7</ele>
        <time>2015-05-13T10:16:01Z</time>
      </trkpt>
      <trkpt lat="43.36774" lon="5.9292">
        <ele>382.1</ele>
        <time>2015-05-13T10:16:31Z</time>
      </trkpt>
      <trkpt lat="43.36758" lon="5.92931">
        <ele>380.6</ele>
        <time>2015-05-13T10:16:47Z</time>
      </trkpt>
      <trkpt lat="43.36742" lon="5.92942">
        <ele>384.6</ele>
        <time>2015-05-13T10:17:00Z</time>
      </trkpt>
      <trkpt lat="43.36725" lon="5.92945">
        <ele>384.5</ele>
        <time>2015-05-13T10:17:13Z</time>
      </trkpt>
      <trkpt lat="43.36723" lon="5.92944">
        <ele>384.2</ele>
        <time>2015-05-13T10:17:14Z</time>
      </trkpt>
      <trkpt lat="43.36694" lon="5.92925">
        <ele>382.2</ele>
        <time>2015-05-13T10:17:41Z</time>
      </trkpt>
      <trkpt lat="43.3668" lon="5.92911">
        <ele>383.3</ele>
        <time>2015-05-13T10:17:55Z</time>
      </trkpt>
      <trkpt lat="43.36669" lon="5.92892">
        <ele>382.8</ele>
        <time>2015-05-13T10:18:09Z</time>
      </trkpt>
      <trkpt lat="43.36656" lon="5.92877">
        <ele>382.2</ele>
        <time>2015-05-13T10:18:24Z</time>
      </trkpt>
      <trkpt lat="43.36655" lon="5.92876">
        <ele>382.3</ele>
        <time>2015-05-13T10:18:25Z</time>
      </trkpt>
      <trkpt lat="43.36627" lon="5.92848">
        <ele>379.3</ele>
        <time>2015-05-13T10:18:57Z</time>
      </trkpt>
      <trkpt lat="43.36613" lon="5.92834">
        <ele>378.3</ele>
        <time>2015-05-13T10:19:12Z</time>
      </trkpt>
      <trkpt lat="43.36597" lon="5.92824">
        <ele>377.6</ele>
        <time>2015-05-13T10:19:27Z</time>
      </trkpt>
      <trkpt lat="43.36596" lon="5.92823">
        <ele>377.2</ele>
        <time>2015-05-13T10:19:28Z</time>
      </trkpt>
      <trkpt lat="43.36567" lon="5.928">
        <ele>375.8</ele>
        <time>2015-05-13T10:19:57Z</time>
      </trkpt>
      <trkpt lat="43.3656" lon="5.92778">
        <ele>376</ele>
        <time>2015-05-13T10:20:11Z</time>
      </trkpt>
      <trkpt lat="43.36558" lon="5.92754">
        <ele>375.6</ele>
        <time>2015-05-13T10:20:25Z</time>
      </trkpt>
      <trkpt lat="43.36557" lon="5.92731">
        <ele>375</ele>
        <time>2015-05-13T10:20:40Z</time>
      </trkpt>
      <trkpt lat="43.36557" lon="5.92729">
        <ele>375</ele>
        <time>2015-05-13T10:20:41Z</time>
      </trkpt>
      <trkpt lat="43.36554" lon="5.92684">
        <ele>370.8</ele>
        <time>2015-05-13T10:21:11Z</time>
      </trkpt>
      <trkpt lat="43.36552" lon="5.9266">
        <ele>370.7</ele>
        <time>2015-05-13T10:21:25Z</time>
      </trkpt>
      <trkpt lat="43.36542" lon="5.9264">
        <ele>371.8</ele>
        <time>2015-05-13T10:21:40Z</time>
      </trkpt>
      <trkpt lat="43.36529" lon="5.92624">
        <ele>371.2</ele>
        <time>2015-05-13T10:21:55Z</time>
      </trkpt>
      <trkpt lat="43.36528" lon="5.92623">
        <ele>371.2</ele>
        <time>2015-05-13T10:21:56Z</time>
      </trkpt>
      <trkpt lat="43.36507" lon="5.92587">
        <ele>370.6</ele>
        <time>2015-05-13T10:22:23Z</time>
      </trkpt>
      <trkpt lat="43.36501" lon="5.92564">
        <ele>370.7</ele>
        <time>2015-05-13T10:22:37Z</time>
      </trkpt>
      <trkpt lat="43.36498" lon="5.9254">
        <ele>369.3</ele>
        <time>2015-05-13T10:22:53Z</time>
      </trkpt>
      <trkpt lat="43.36499" lon="5.92517">
        <ele>369</ele>
        <time>2015-05-13T10:23:07Z</time>
      </trkpt>
      <trkpt lat="43.36499" lon="5.92515">
        <ele>368.8</ele>
        <time>2015-05-13T10:23:08Z</time>
      </trkpt>
      <trkpt lat="43.36491" lon="5.9247">
        <ele>366.8</ele>
        <time>2015-05-13T10:23:37Z</time>
      </trkpt>
      <trkpt lat="43.36485" lon="5.92447">
        <ele>366.7</ele>
        <time>2015-05-13T10:23:52Z</time>
      </trkpt>
      <trkpt lat="43.36484" lon="5.92423">
        <ele>367.2</ele>
        <time>2015-05-13T10:24:07Z</time>
      </trkpt>
      <trkpt lat="43.36485" lon="5.92399">
        <ele>369.2</ele>
        <time>2015-05-13T10:24:23Z</time>
      </trkpt>
      <trkpt lat="43.36485" lon="5.92398">
        <ele>369.2</ele>
        <time>2015-05-13T10:24:24Z</time>
      </trkpt>
      <trkpt lat="43.36493" lon="5.92352">
        <ele>369.1</ele>
        <time>2015-05-13T10:25:08Z</time>
      </trkpt>
      <trkpt lat="43.36482" lon="5.92332">
        <ele>368.2</ele>
        <time>2015-05-13T10:26:00Z</time>
      </trkpt>
      <trkpt lat="43.36483" lon="5.92331">
        <ele>368.2</ele>
        <time>2015-05-13T10:26:01Z</time>
      </trkpt>
      <trkpt lat="43.36483" lon="5.92306">
        <ele>365</ele>
        <time>2015-05-13T10:27:10Z</time>
      </trkpt>
      <trkpt lat="43.3647" lon="5.92263">
        <ele>363.2</ele>
        <time>2015-05-13T10:27:43Z</time>
      </trkpt>
      <trkpt lat="43.36469" lon="5.92239">
        <ele>363.6</ele>
        <time>2015-05-13T10:28:02Z</time>
      </trkpt>
      <trkpt lat="43.3647" lon="5.92214">
        <ele>362.7</ele>
        <time>2015-05-13T10:28:26Z</time>
      </trkpt>
      <trkpt lat="43.3647" lon="5.92213">
        <ele>362.7</ele>
        <time>2015-05-13T10:28:27Z</time>
      </trkpt>
      <trkpt lat="43.36478" lon="5.92167">
        <ele>363.3</ele>
        <time>2015-05-13T10:29:01Z</time>
      </trkpt>
      <trkpt lat="43.36478" lon="5.92143">
        <ele>362.7</ele>
        <time>2015-05-13T10:29:16Z</time>
      </trkpt>
      <trkpt lat="43.3648" lon="5.92119">
        <ele>360.3</ele>
        <time>2015-05-13T10:29:36Z</time>
      </trkpt>
      <trkpt lat="43.3648" lon="5.92118">
        <ele>360.2</ele>
        <time>2015-05-13T10:29:37Z</time>
      </trkpt>
      <trkpt lat="43.36474" lon="5.92072">
        <ele>360.6</ele>
        <time>2015-05-13T10:30:23Z</time>
      </trkpt>
      <trkpt lat="43.36465" lon="5.92052">
        <ele>359.5</ele>
        <time>2015-05-13T10:30:43Z</time>
      </trkpt>
      <trkpt lat="43.36464" lon="5.92051">
        <ele>359.2</ele>
        <time>2015-05-13T10:30:44Z</time>
      </trkpt>
      <trkpt lat="43.36447" lon="5.92011">
        <ele>358.2</ele>
        <time>2015-05-13T10:31:41Z</time>
      </trkpt>
      <trkpt lat="43.36459" lon="5.92028">
        <ele>353.5</ele>
        <time>2015-05-13T10:32:23Z</time>
      </trkpt>
      <trkpt lat="43.36459" lon="5.92029">
        <ele>353.7</ele>
        <time>2015-05-13T10:32:24Z</time>
      </trkpt>
      <trkpt lat="43.36482" lon="5.92066">
        <ele>351.2</ele>
        <time>2015-05-13T10:33:28Z</time>
      </trkpt>
      <trkpt lat="43.36482" lon="5.92067">
        <ele>351.1</ele>
        <time>2015-05-13T10:33:29Z</time>
      </trkpt>
      <trkpt lat="43.36493" lon="5.92068">
        <ele>356.7</ele>
        <time>2015-05-13T10:37:11Z</time>
      </trkpt>
      <trkpt lat="43.36485" lon="5.92071">
        <ele>350.3</ele>
        <time>2015-05-13T11:48:25Z</time>
      </trkpt>
      <trkpt lat="43.36483" lon="5.92073">
        <ele>342.2</ele>
        <time>2015-05-13T11:48:26Z</time>
      </trkpt>
      <trkpt lat="43.3648" lon="5.92049">
        <ele>362.5</ele>
        <time>2015-05-13T11:52:04Z</time>
      </trkpt>
      <trkpt lat="43.36479" lon="5.92049">
        <ele>362.7</ele>
        <time>2015-05-13T11:52:05Z</time>
      </trkpt>
      <trkpt lat="43.36451" lon="5.92022">
        <ele>356.1</ele>
        <time>2015-05-13T11:53:15Z</time>
      </trkpt>
      <trkpt lat="43.36451" lon="5.92022">
        <ele>356</ele>
        <time>2015-05-13T11:53:16Z</time>
      </trkpt>
      <trkpt lat="43.36422" lon="5.91998">
        <ele>357.5</ele>
        <time>2015-05-13T11:54:18Z</time>
      </trkpt>
      <trkpt lat="43.36422" lon="5.91997">
        <ele>357.3</ele>
        <time>2015-05-13T11:54:19Z</time>
      </trkpt>
      <trkpt lat="43.36396" lon="5.91974">
        <ele>355.7</ele>
        <time>2015-05-13T11:55:07Z</time>
      </trkpt>
      <trkpt lat="43.36398" lon="5.9195">
        <ele>356.2</ele>
        <time>2015-05-13T11:55:26Z</time>
      </trkpt>
      <trkpt lat="43.36398" lon="5.91949">
        <ele>356.2</ele>
        <time>2015-05-13T11:55:27Z</time>
      </trkpt>
      <trkpt lat="43.3642" lon="5.91914">
        <ele>358.8</ele>
        <time>2015-05-13T11:56:42Z</time>
      </trkpt>
      <trkpt lat="43.3642" lon="5.91914">
        <ele>358.7</ele>
        <time>2015-05-13T11:56:43Z</time>
      </trkpt>
      <trkpt lat="43.36451" lon="5.91935">
        <ele>354.8</ele>
        <time>2015-05-13T11:57:32Z</time>
      </trkpt>
      <trkpt lat="43.36469" lon="5.91938">
        <ele>360.2</ele>
        <time>2015-05-13T11:57:53Z</time>
      </trkpt>
      <trkpt lat="43.3647" lon="5.91938">
        <ele>360.5</ele>
        <time>2015-05-13T11:57:54Z</time>
      </trkpt>
      <trkpt lat="43.36491" lon="5.91975">
        <ele>362.2</ele>
        <time>2015-05-13T11:58:31Z</time>
      </trkpt>
      <trkpt lat="43.36505" lon="5.91989">
        <ele>363.1</ele>
        <time>2015-05-13T11:58:54Z</time>
      </trkpt>
      <trkpt lat="43.36505" lon="5.91991">
        <ele>362.6</ele>
        <time>2015-05-13T11:58:55Z</time>
      </trkpt>
      <trkpt lat="43.36524" lon="5.9203">
        <ele>360</ele>
        <time>2015-05-13T11:59:34Z</time>
      </trkpt>
      <trkpt lat="43.36531" lon="5.92053">
        <ele>360.5</ele>
        <time>2015-05-13T12:00:13Z</time>
      </trkpt>
      <trkpt lat="43.36531" lon="5.92054">
        <ele>360.2</ele>
        <time>2015-05-13T12:00:14Z</time>
      </trkpt>
      <trkpt lat="43.36562" lon="5.92075">
        <ele>359</ele>
        <time>2015-05-13T12:00:54Z</time>
      </trkpt>
      <trkpt lat="43.36579" lon="5.92079">
        <ele>364.8</ele>
        <time>2015-05-13T12:01:16Z</time>
      </trkpt>
      <trkpt lat="43.3658" lon="5.92079">
        <ele>364.6</ele>
        <time>2015-05-13T12:01:17Z</time>
      </trkpt>
      <trkpt lat="43.36613" lon="5.92078">
        <ele>368.6</ele>
        <time>2015-05-13T12:02:33Z</time>
      </trkpt>
      <trkpt lat="43.36614" lon="5.92078">
        <ele>368.8</ele>
        <time>2015-05-13T12:02:34Z</time>
      </trkpt>
      <trkpt lat="43.36626" lon="5.92118">
        <ele>364.8</ele>
        <time>2015-05-13T12:03:18Z</time>
      </trkpt>
      <trkpt lat="43.36629" lon="5.92142">
        <ele>366.2</ele>
        <time>2015-05-13T12:03:37Z</time>
      </trkpt>
      <trkpt lat="43.36629" lon="5.92143">
        <ele>366.3</ele>
        <time>2015-05-13T12:03:38Z</time>
      </trkpt>
      <trkpt lat="43.36645" lon="5.92152">
        <ele>373.7</ele>
        <time>2015-05-13T12:11:57Z</time>
      </trkpt>
      <trkpt lat="43.36658" lon="5.92169">
        <ele>375.2</ele>
        <time>2015-05-13T12:13:32Z</time>
      </trkpt>
      <trkpt lat="43.36668" lon="5.92189">
        <ele>376.1</ele>
        <time>2015-05-13T12:15:00Z</time>
      </trkpt>
      <trkpt lat="43.36699" lon="5.92165">
        <ele>382.7</ele>
        <time>2015-05-13T12:16:33Z</time>
      </trkpt>
      <trkpt lat="43.367" lon="5.92165">
        <ele>383</ele>
        <time>2015-05-13T12:16:34Z</time>
      </trkpt>
      <trkpt lat="43.36734" lon="5.9217">
        <ele>385.5</ele>
        <time>2015-05-13T12:18:09Z</time>
      </trkpt>
      <trkpt lat="43.36735" lon="5.92169">
        <ele>385.5</ele>
        <time>2015-05-13T12:18:10Z</time>
      </trkpt>
      <trkpt lat="43.36751" lon="5.92159">
        <ele>382.6</ele>
        <time>2015-05-13T12:20:53Z</time>
      </trkpt>
      <trkpt lat="43.36756" lon="5.92159">
        <ele>382.1</ele>
        <time>2015-05-13T12:23:17Z</time>
      </trkpt>
      <trkpt lat="43.36755" lon="5.92158">
        <ele>382.2</ele>
        <time>2015-05-13T12:23:18Z</time>
      </trkpt>
      <trkpt lat="43.36766" lon="5.92116">
        <ele>380.2</ele>
        <time>2015-05-13T12:24:33Z</time>
      </trkpt>
      <trkpt lat="43.36766" lon="5.92115">
        <ele>380.5</ele>
        <time>2015-05-13T12:24:34Z</time>
      </trkpt>
      <trkpt lat="43.36781" lon="5.9214">
        <ele>375.2</ele>
        <time>2015-05-13T12:27:19Z</time>
      </trkpt>
      <trkpt lat="43.3678" lon="5.92141">
        <ele>375.2</ele>
        <time>2015-05-13T12:27:20Z</time>
      </trkpt>
      <trkpt lat="43.36769" lon="5.92187">
        <ele>367.5</ele>
        <time>2015-05-13T12:28:26Z</time>
      </trkpt>
      <trkpt lat="43.36769" lon="5.92187">
        <ele>367.6</ele>
        <time>2015-05-13T12:28:27Z</time>
      </trkpt>
      <trkpt lat="43.36787" lon="5.92193">
        <ele>366.2</ele>
        <time>2015-05-13T12:31:35Z</time>
      </trkpt>
      <trkpt lat="43.36776" lon="5.92215">
        <ele>357.1</ele>
        <time>2015-05-13T12:32:46Z</time>
      </trkpt>
      <trkpt lat="43.36795" lon="5.92213">
        <ele>362.7</ele>
        <time>2015-05-13T12:35:48Z</time>
      </trkpt>
      <trkpt lat="43.36819" lon="5.92179">
        <ele>359.3</ele>
        <time>2015-05-13T12:36:35Z</time>
      </trkpt>
      <trkpt lat="43.36834" lon="5.92165">
        <ele>365.2</ele>
        <time>2015-05-13T12:36:57Z</time>
      </trkpt>
      <trkpt lat="43.36834" lon="5.92164">
        <ele>364.8</ele>
        <time>2015-05-13T12:36:58Z</time>
      </trkpt>
      <trkpt lat="43.36862" lon="5.92145">
        <ele>366.2</ele>
        <time>2015-05-13T12:38:53Z</time>
      </trkpt>
      <trkpt lat="43.36863" lon="5.92146">
        <ele>366.7</ele>
        <time>2015-05-13T12:38:54Z</time>
      </trkpt>
      <trkpt lat="43.36875" lon="5.92163">
        <ele>353.6</ele>
        <time>2015-05-13T12:40:47Z</time>
      </trkpt>
      <trkpt lat="43.36908" lon="5.92157">
        <ele>347.8</ele>
        <time>2015-05-13T12:42:10Z</time>
      </trkpt>
      <trkpt lat="43.36908" lon="5.92157">
        <ele>348.5</ele>
        <time>2015-05-13T12:42:11Z</time>
      </trkpt>
      <trkpt lat="43.36923" lon="5.9214">
        <ele>349.6</ele>
        <time>2015-05-13T12:45:05Z</time>
      </trkpt>
      <trkpt lat="43.36926" lon="5.92117">
        <ele>337.6</ele>
        <time>2015-05-13T12:46:41Z</time>
      </trkpt>
      <trkpt lat="43.36957" lon="5.92095">
        <ele>341.8</ele>
        <time>2015-05-13T12:47:14Z</time>
      </trkpt>
      <trkpt lat="43.3697" lon="5.9208">
        <ele>334.6</ele>
        <time>2015-05-13T12:47:34Z</time>
      </trkpt>
      <trkpt lat="43.36984" lon="5.92065">
        <ele>335.6</ele>
        <time>2015-05-13T12:47:48Z</time>
      </trkpt>
      <trkpt lat="43.36986" lon="5.92065">
        <ele>336</ele>
        <time>2015-05-13T12:47:49Z</time>
      </trkpt>
      <trkpt lat="43.37015" lon="5.92048">
        <ele>343.6</ele>
        <time>2015-05-13T12:48:09Z</time>
      </trkpt>
      <trkpt lat="43.37029" lon="5.92037">
        <ele>346.1</ele>
        <time>2015-05-13T12:48:21Z</time>
      </trkpt>
      <trkpt lat="43.37045" lon="5.92026">
        <ele>354</ele>
        <time>2015-05-13T12:48:31Z</time>
      </trkpt>
      <trkpt lat="43.37053" lon="5.92004">
        <ele>343</ele>
        <time>2015-05-13T12:48:54Z</time>
      </trkpt>
      <trkpt lat="43.37054" lon="5.92005">
        <ele>343.3</ele>
        <time>2015-05-13T12:48:55Z</time>
      </trkpt>
      <trkpt lat="43.37029" lon="5.92038">
        <ele>327.5</ele>
        <time>2015-05-13T12:49:30Z</time>
      </trkpt>
      <trkpt lat="43.37017" lon="5.92056">
        <ele>329.7</ele>
        <time>2015-05-13T12:49:42Z</time>
      </trkpt>
      <trkpt lat="43.37003" lon="5.92069">
        <ele>329.5</ele>
        <time>2015-05-13T12:49:56Z</time>
      </trkpt>
      <trkpt lat="43.37001" lon="5.9207">
        <ele>328.7</ele>
        <time>2015-05-13T12:49:57Z</time>
      </trkpt>
      <trkpt lat="43.36979" lon="5.92102">
        <ele>325.8</ele>
        <time>2015-05-13T12:50:43Z</time>
      </trkpt>
      <trkpt lat="43.36967" lon="5.92118">
        <ele>336.3</ele>
        <time>2015-05-13T12:51:37Z</time>
      </trkpt>
      <trkpt lat="43.36966" lon="5.92119">
        <ele>337.2</ele>
        <time>2015-05-13T12:51:38Z</time>
      </trkpt>
      <trkpt lat="43.36998" lon="5.92117">
        <ele>331.2</ele>
        <time>2015-05-13T12:56:04Z</time>
      </trkpt>
      <trkpt lat="43.36998" lon="5.92119">
        <ele>328.7</ele>
        <time>2015-05-13T12:56:05Z</time>
      </trkpt>
      <trkpt lat="43.37016" lon="5.92112">
        <ele>322.2</ele>
        <time>2015-05-13T12:58:47Z</time>
      </trkpt>
      <trkpt lat="43.37016" lon="5.9211">
        <ele>323.2</ele>
        <time>2015-05-13T12:58:48Z</time>
      </trkpt>
      <trkpt lat="43.37031" lon="5.92097">
        <ele>323.1</ele>
        <time>2015-05-13T13:00:44Z</time>
      </trkpt>
      <trkpt lat="43.37055" lon="5.92072">
        <ele>316.5</ele>
        <time>2015-05-13T13:01:37Z</time>
      </trkpt>
      <trkpt lat="43.37066" lon="5.92053">
        <ele>318.7</ele>
        <time>2015-05-13T13:02:21Z</time>
      </trkpt>
      <trkpt lat="43.37066" lon="5.92052">
        <ele>318.2</ele>
        <time>2015-05-13T13:02:22Z</time>
      </trkpt>
      <trkpt lat="43.37095" lon="5.92025">
        <ele>322.3</ele>
        <time>2015-05-13T13:03:23Z</time>
      </trkpt>
      <trkpt lat="43.37095" lon="5.92023">
        <ele>323.6</ele>
        <time>2015-05-13T13:03:24Z</time>
      </trkpt>
      <trkpt lat="43.37115" lon="5.91987">
        <ele>329.2</ele>
        <time>2015-05-13T13:04:01Z</time>
      </trkpt>
      <trkpt lat="43.37125" lon="5.91967">
        <ele>322.5</ele>
        <time>2015-05-13T13:04:44Z</time>
      </trkpt>
      <trkpt lat="43.37126" lon="5.91967">
        <ele>323.2</ele>
        <time>2015-05-13T13:04:45Z</time>
      </trkpt>
      <trkpt lat="43.37158" lon="5.91954">
        <ele>310.7</ele>
        <time>2015-05-13T13:05:57Z</time>
      </trkpt>
      <trkpt lat="43.37159" lon="5.91954">
        <ele>310.7</ele>
        <time>2015-05-13T13:05:58Z</time>
      </trkpt>
      <trkpt lat="43.37187" lon="5.91929">
        <ele>327.6</ele>
        <time>2015-05-13T13:07:36Z</time>
      </trkpt>
      <trkpt lat="43.3719" lon="5.91931">
        <ele>326.5</ele>
        <time>2015-05-13T13:07:37Z</time>
      </trkpt>
      <trkpt lat="43.37189" lon="5.9193">
        <ele>337.1</ele>
        <time>2015-05-13T13:09:03Z</time>
      </trkpt>
      <trkpt lat="43.37188" lon="5.91928">
        <ele>338.7</ele>
        <time>2015-05-13T13:09:04Z</time>
      </trkpt>
      <trkpt lat="43.3722" lon="5.91939">
        <ele>308.1</ele>
        <time>2015-05-13T13:11:08Z</time>
      </trkpt>
      <trkpt lat="43.37222" lon="5.9194">
        <ele>308.3</ele>
        <time>2015-05-13T13:11:09Z</time>
      </trkpt>
      <trkpt lat="43.37212" lon="5.91904">
        <ele>331.6</ele>
        <time>2015-05-13T13:12:03Z</time>
      </trkpt>
      <trkpt lat="43.37229" lon="5.91907">
        <ele>340.8</ele>
        <time>2015-05-13T13:13:27Z</time>
      </trkpt>
      <trkpt lat="43.37231" lon="5.91908">
        <ele>338.6</ele>
        <time>2015-05-13T13:13:28Z</time>
      </trkpt>
      <trkpt lat="43.37258" lon="5.91933">
        <ele>319.1</ele>
        <time>2015-05-13T13:14:22Z</time>
      </trkpt>
      <trkpt lat="43.37273" lon="5.91941">
        <ele>312</ele>
        <time>2015-05-13T13:14:52Z</time>
      </trkpt>
      <trkpt lat="43.37276" lon="5.91943">
        <ele>308.6</ele>
        <time>2015-05-13T13:14:53Z</time>
      </trkpt>
      <trkpt lat="43.37297" lon="5.91937">
        <ele>301.2</ele>
        <time>2015-05-13T13:15:40Z</time>
      </trkpt>
      <trkpt lat="43.37283" lon="5.91922">
        <ele>312.5</ele>
        <time>2015-05-13T13:16:13Z</time>
      </trkpt>
      <trkpt lat="43.37281" lon="5.91922">
        <ele>313.5</ele>
        <time>2015-05-13T13:16:14Z</time>
      </trkpt>
      <trkpt lat="43.37313" lon="5.9191">
        <ele>301.7</ele>
        <time>2015-05-13T13:17:25Z</time>
      </trkpt>
      <trkpt lat="43.37314" lon="5.91909">
        <ele>301.7</ele>
        <time>2015-05-13T13:17:26Z</time>
      </trkpt>
      <trkpt lat="43.37333" lon="5.91873">
        <ele>314.2</ele>
        <time>2015-05-13T13:17:59Z</time>
      </trkpt>
      <trkpt lat="43.37333" lon="5.91849">
        <ele>315</ele>
        <time>2015-05-13T13:18:57Z</time>
      </trkpt>
      <trkpt lat="43.37334" lon="5.91848">
        <ele>316.1</ele>
        <time>2015-05-13T13:18:58Z</time>
      </trkpt>
      <trkpt lat="43.3735" lon="5.91807">
        <ele>294.7</ele>
        <time>2015-05-13T13:20:01Z</time>
      </trkpt>
      <trkpt lat="43.37351" lon="5.91807">
        <ele>294.2</ele>
        <time>2015-05-13T13:20:02Z</time>
      </trkpt>
      <trkpt lat="43.37354" lon="5.91761">
        <ele>291.5</ele>
        <time>2015-05-13T13:20:53Z</time>
      </trkpt>
      <trkpt lat="43.3737" lon="5.91752">
        <ele>308.5</ele>
        <time>2015-05-13T13:21:07Z</time>
      </trkpt>
      <trkpt lat="43.37371" lon="5.91751">
        <ele>309</ele>
        <time>2015-05-13T13:21:08Z</time>
      </trkpt>
      <trkpt lat="43.3736" lon="5.91714">
        <ele>324</ele>
        <time>2015-05-13T13:22:32Z</time>
      </trkpt>
      <trkpt lat="43.37359" lon="5.91714">
        <ele>324.1</ele>
        <time>2015-05-13T13:22:33Z</time>
      </trkpt>
      <trkpt lat="43.37378" lon="5.91717">
        <ele>316.5</ele>
        <time>2015-05-13T13:23:37Z</time>
      </trkpt>
      <trkpt lat="43.37371" lon="5.91698">
        <ele>298</ele>
        <time>2015-05-13T13:26:02Z</time>
      </trkpt>
      <trkpt lat="43.37372" lon="5.91697">
        <ele>298.3</ele>
        <time>2015-05-13T13:26:03Z</time>
      </trkpt>
      <trkpt lat="43.37389" lon="5.91657">
        <ele>301.1</ele>
        <time>2015-05-13T13:26:43Z</time>
      </trkpt>
      <trkpt lat="43.37392" lon="5.91633">
        <ele>300.6</ele>
        <time>2015-05-13T13:27:05Z</time>
      </trkpt>
      <trkpt lat="43.37394" lon="5.91631">
        <ele>301.2</ele>
        <time>2015-05-13T13:27:06Z</time>
      </trkpt>
      <trkpt lat="43.37409" lon="5.91592">
        <ele>294.7</ele>
        <time>2015-05-13T13:27:56Z</time>
      </trkpt>
      <trkpt lat="43.37421" lon="5.91577">
        <ele>318.2</ele>
        <time>2015-05-13T13:28:15Z</time>
      </trkpt>
      <trkpt lat="43.37422" lon="5.91575">
        <ele>320.2</ele>
        <time>2015-05-13T13:28:16Z</time>
      </trkpt>
      <trkpt lat="43.37431" lon="5.91533">
        <ele>325.7</ele>
        <time>2015-05-13T13:29:04Z</time>
      </trkpt>
      <trkpt lat="43.3744" lon="5.91512">
        <ele>324.2</ele>
        <time>2015-05-13T13:29:29Z</time>
      </trkpt>
      <trkpt lat="43.3744" lon="5.9151">
        <ele>324</ele>
        <time>2015-05-13T13:29:30Z</time>
      </trkpt>
      <trkpt lat="43.37455" lon="5.91477">
        <ele>322.5</ele>
        <time>2015-05-13T13:30:19Z</time>
      </trkpt>
      <trkpt lat="43.37471" lon="5.91467">
        <ele>321.1</ele>
        <time>2015-05-13T13:30:49Z</time>
      </trkpt>
      <trkpt lat="43.37472" lon="5.91466">
        <ele>321.6</ele>
        <time>2015-05-13T13:30:50Z</time>
      </trkpt>
      <trkpt lat="43.37491" lon="5.91472">
        <ele>348.6</ele>
        <time>2015-05-13T13:32:13Z</time>
      </trkpt>
      <trkpt lat="43.37521" lon="5.91472">
        <ele>367</ele>
        <time>2015-05-13T13:33:20Z</time>
      </trkpt>
      <trkpt lat="43.37524" lon="5.91474">
        <ele>365</ele>
        <time>2015-05-13T13:33:21Z</time>
      </trkpt>
      <trkpt lat="43.37554" lon="5.9148">
        <ele>344</ele>
        <time>2015-05-13T13:33:45Z</time>
      </trkpt>
      <trkpt lat="43.37572" lon="5.91479">
        <ele>331.8</ele>
        <time>2015-05-13T13:33:58Z</time>
      </trkpt>
      <trkpt lat="43.37588" lon="5.91468">
        <ele>340.8</ele>
        <time>2015-05-13T13:34:56Z</time>
      </trkpt>
      <trkpt lat="43.37588" lon="5.91467">
        <ele>340.2</ele>
        <time>2015-05-13T13:34:57Z</time>
      </trkpt>
      <trkpt lat="43.3761" lon="5.91436">
        <ele>332</ele>
        <time>2015-05-13T13:35:50Z</time>
      </trkpt>
      <trkpt lat="43.37627" lon="5.9143">
        <ele>332.5</ele>
        <time>2015-05-13T13:36:09Z</time>
      </trkpt>
      <trkpt lat="43.37628" lon="5.91431">
        <ele>332.3</ele>
        <time>2015-05-13T13:36:10Z</time>
      </trkpt>
      <trkpt lat="43.37661" lon="5.91415">
        <ele>333.5</ele>
        <time>2015-05-13T13:37:15Z</time>
      </trkpt>
      <trkpt lat="43.3766" lon="5.91413">
        <ele>333.1</ele>
        <time>2015-05-13T13:37:16Z</time>
      </trkpt>
      <trkpt lat="43.3769" lon="5.91392">
        <ele>320.7</ele>
        <time>2015-05-13T13:38:04Z</time>
      </trkpt>
      <trkpt lat="43.37707" lon="5.91384">
        <ele>325.3</ele>
        <time>2015-05-13T13:38:30Z</time>
      </trkpt>
      <trkpt lat="43.37708" lon="5.91384">
        <ele>325.3</ele>
        <time>2015-05-13T13:38:31Z</time>
      </trkpt>
      <trkpt lat="43.37741" lon="5.91377">
        <ele>338.7</ele>
        <time>2015-05-13T13:39:18Z</time>
      </trkpt>
      <trkpt lat="43.37759" lon="5.91379">
        <ele>346.8</ele>
        <time>2015-05-13T13:39:53Z</time>
      </trkpt>
      <trkpt lat="43.3776" lon="5.9138">
        <ele>347.3</ele>
        <time>2015-05-13T13:39:54Z</time>
      </trkpt>
      <trkpt lat="43.37768" lon="5.91401">
        <ele>333.8</ele>
        <time>2015-05-13T13:43:19Z</time>
      </trkpt>
      <trkpt lat="43.37784" lon="5.91412">
        <ele>324</ele>
        <time>2015-05-13T13:45:42Z</time>
      </trkpt>
      <trkpt lat="43.37799" lon="5.91455">
        <ele>312.2</ele>
        <time>2015-05-13T13:46:32Z</time>
      </trkpt>
      <trkpt lat="43.37801" lon="5.91478">
        <ele>310.6</ele>
        <time>2015-05-13T13:46:53Z</time>
      </trkpt>
      <trkpt lat="43.37801" lon="5.9148">
        <ele>310.7</ele>
        <time>2015-05-13T13:46:54Z</time>
      </trkpt>
      <trkpt lat="43.37817" lon="5.9152">
        <ele>308.2</ele>
        <time>2015-05-13T13:47:30Z</time>
      </trkpt>
      <trkpt lat="43.37823" lon="5.91543">
        <ele>302.6</ele>
        <time>2015-05-13T13:47:51Z</time>
      </trkpt>
      <trkpt lat="43.37832" lon="5.91563">
        <ele>298.6</ele>
        <time>2015-05-13T13:48:14Z</time>
      </trkpt>
      <trkpt lat="43.37833" lon="5.91564">
        <ele>298.5</ele>
        <time>2015-05-13T13:48:15Z</time>
      </trkpt>
      <trkpt lat="43.37852" lon="5.91603">
        <ele>302.1</ele>
        <time>2015-05-13T13:48:49Z</time>
      </trkpt>
      <trkpt lat="43.37864" lon="5.91621">
        <ele>299.3</ele>
        <time>2015-05-13T13:49:09Z</time>
      </trkpt>
      <trkpt lat="43.37876" lon="5.91639">
        <ele>293</ele>
        <time>2015-05-13T13:49:27Z</time>
      </trkpt>
      <trkpt lat="43.37876" lon="5.91641">
        <ele>292.7</ele>
        <time>2015-05-13T13:49:28Z</time>
      </trkpt>
      <trkpt lat="43.37872" lon="5.91687">
        <ele>292.6</ele>
        <time>2015-05-13T13:50:03Z</time>
      </trkpt>
      <trkpt lat="43.37882" lon="5.91707">
        <ele>293</ele>
        <time>2015-05-13T13:50:17Z</time>
      </trkpt>
      <trkpt lat="43.37893" lon="5.91725">
        <ele>298.8</ele>
        <time>2015-05-13T13:50:33Z</time>
      </trkpt>
      <trkpt lat="43.37894" lon="5.91726">
        <ele>299.2</ele>
        <time>2015-05-13T13:50:34Z</time>
      </trkpt>
      <trkpt lat="43.37917" lon="5.9176">
        <ele>295.7</ele>
        <time>2015-05-13T13:51:13Z</time>
      </trkpt>
      <trkpt lat="43.37926" lon="5.91781">
        <ele>299.7</ele>
        <time>2015-05-13T13:51:28Z</time>
      </trkpt>
      <trkpt lat="43.37934" lon="5.91802">
        <ele>294.6</ele>
        <time>2015-05-13T13:51:47Z</time>
      </trkpt>
      <trkpt lat="43.37935" lon="5.91803">
        <ele>293.7</ele>
        <time>2015-05-13T13:51:48Z</time>
      </trkpt>
      <trkpt lat="43.37955" lon="5.9184">
        <ele>294</ele>
        <time>2015-05-13T13:52:26Z</time>
      </trkpt>
      <trkpt lat="43.37961" lon="5.91863">
        <ele>292.5</ele>
        <time>2015-05-13T13:52:44Z</time>
      </trkpt>
      <trkpt lat="43.37969" lon="5.91883">
        <ele>294.3</ele>
        <time>2015-05-13T13:53:00Z</time>
      </trkpt>
      <trkpt lat="43.3797" lon="5.91885">
        <ele>294.2</ele>
        <time>2015-05-13T13:53:01Z</time>
      </trkpt>
      <trkpt lat="43.37981" lon="5.91928">
        <ele>291.6</ele>
        <time>2015-05-13T13:53:34Z</time>
      </trkpt>
      <trkpt lat="43.37989" lon="5.91949">
        <ele>291.7</ele>
        <time>2015-05-13T13:53:51Z</time>
      </trkpt>
      <trkpt lat="43.37995" lon="5.91971">
        <ele>288.1</ele>
        <time>2015-05-13T13:54:08Z</time>
      </trkpt>
      <trkpt lat="43.37996" lon="5.91972">
        <ele>288.1</ele>
        <time>2015-05-13T13:54:09Z</time>
      </trkpt>
      <trkpt lat="43.38007" lon="5.92013">
        <ele>294.7</ele>
        <time>2015-05-13T13:54:39Z</time>
      </trkpt>
      <trkpt lat="43.38018" lon="5.92031">
        <ele>291.2</ele>
        <time>2015-05-13T13:54:55Z</time>
      </trkpt>
      <trkpt lat="43.38025" lon="5.92052">
        <ele>292</ele>
        <time>2015-05-13T13:55:13Z</time>
      </trkpt>
      <trkpt lat="43.38026" lon="5.92054">
        <ele>291.5</ele>
        <time>2015-05-13T13:55:14Z</time>
      </trkpt>
      <trkpt lat="43.38048" lon="5.92089">
        <ele>292</ele>
        <time>2015-05-13T13:55:41Z</time>
      </trkpt>
      <trkpt lat="43.38056" lon="5.9211">
        <ele>290.7</ele>
        <time>2015-05-13T13:55:58Z</time>
      </trkpt>
      <trkpt lat="43.38068" lon="5.92127">
        <ele>317.3</ele>
        <time>2015-05-13T13:56:29Z</time>
      </trkpt>
      <trkpt lat="43.3807" lon="5.92128">
        <ele>316.8</ele>
        <time>2015-05-13T13:56:30Z</time>
      </trkpt>
      <trkpt lat="43.38101" lon="5.92137">
        <ele>306.7</ele>
        <time>2015-05-13T13:57:06Z</time>
      </trkpt>
      <trkpt lat="43.38118" lon="5.92133">
        <ele>317.8</ele>
        <time>2015-05-13T13:57:34Z</time>
      </trkpt>
      <trkpt lat="43.3812" lon="5.92134">
        <ele>317.1</ele>
        <time>2015-05-13T13:57:35Z</time>
      </trkpt>
      <trkpt lat="43.38152" lon="5.9213">
        <ele>303</ele>
        <time>2015-05-13T13:58:00Z</time>
      </trkpt>
      <trkpt lat="43.38169" lon="5.92134">
        <ele>294.1</ele>
        <time>2015-05-13T13:58:13Z</time>
      </trkpt>
      <trkpt lat="43.38186" lon="5.92139">
        <ele>287</ele>
        <time>2015-05-13T13:58:31Z</time>
      </trkpt>
      <trkpt lat="43.38204" lon="5.92143">
        <ele>283.3</ele>
        <time>2015-05-13T13:58:48Z</time>
      </trkpt>
      <trkpt lat="43.38205" lon="5.92143">
        <ele>283</ele>
        <time>2015-05-13T13:58:49Z</time>
      </trkpt>
      <trkpt lat="43.38238" lon="5.92148">
        <ele>283.5</ele>
        <time>2015-05-13T13:59:21Z</time>
      </trkpt>
      <trkpt lat="43.38255" lon="5.92151">
        <ele>283.1</ele>
        <time>2015-05-13T13:59:40Z</time>
      </trkpt>
      <trkpt lat="43.38272" lon="5.9215">
        <ele>284.7</ele>
        <time>2015-05-13T13:59:56Z</time>
      </trkpt>
      <trkpt lat="43.38274" lon="5.9215">
        <ele>284.7</ele>
        <time>2015-05-13T13:59:57Z</time>
      </trkpt>
      <trkpt lat="43.38307" lon="5.9215">
        <ele>291.8</ele>
        <time>2015-05-13T14:00:26Z</time>
      </trkpt>
      <trkpt lat="43.38323" lon="5.92157">
        <ele>293.7</ele>
        <time>2015-05-13T14:00:42Z</time>
      </trkpt>
      <trkpt lat="43.3834" lon="5.92166">
        <ele>295.5</ele>
        <time>2015-05-13T14:00:58Z</time>
      </trkpt>
      <trkpt lat="43.38341" lon="5.92167">
        <ele>295.6</ele>
        <time>2015-05-13T14:00:59Z</time>
      </trkpt>
      <trkpt lat="43.38372" lon="5.92183">
        <ele>297.2</ele>
        <time>2015-05-13T14:01:29Z</time>
      </trkpt>
      <trkpt lat="43.38388" lon="5.92193">
        <ele>296.5</ele>
        <time>2015-05-13T14:01:46Z</time>
      </trkpt>
      <trkpt lat="43.38404" lon="5.922">
        <ele>294.6</ele>
        <time>2015-05-13T14:02:01Z</time>
      </trkpt>
      <trkpt lat="43.38405" lon="5.92201">
        <ele>294.5</ele>
        <time>2015-05-13T14:02:02Z</time>
      </trkpt>
      <trkpt lat="43.38436" lon="5.92218">
        <ele>294.8</ele>
        <time>2015-05-13T14:02:38Z</time>
      </trkpt>
      <trkpt lat="43.38451" lon="5.92231">
        <ele>292.5</ele>
        <time>2015-05-13T14:02:55Z</time>
      </trkpt>
      <trkpt lat="43.3846" lon="5.92252">
        <ele>290.2</ele>
        <time>2015-05-13T14:03:21Z</time>
      </trkpt>
      <trkpt lat="43.3846" lon="5.92253">
        <ele>289.6</ele>
        <time>2015-05-13T14:03:22Z</time>
      </trkpt>
      <trkpt lat="43.38485" lon="5.92285">
        <ele>290.2</ele>
        <time>2015-05-13T14:03:54Z</time>
      </trkpt>
      <trkpt lat="43.38495" lon="5.92304">
        <ele>286.7</ele>
        <time>2015-05-13T14:04:11Z</time>
      </trkpt>
      <trkpt lat="43.38504" lon="5.92325">
        <ele>287.5</ele>
        <time>2015-05-13T14:04:27Z</time>
      </trkpt>
      <trkpt lat="43.38504" lon="5.92327">
        <ele>287.3</ele>
        <time>2015-05-13T14:04:28Z</time>
      </trkpt>
      <trkpt lat="43.38505" lon="5.92374">
        <ele>292</ele>
        <time>2015-05-13T14:04:53Z</time>
      </trkpt>
      <trkpt lat="43.38506" lon="5.92397">
        <ele>292.7</ele>
        <time>2015-05-13T14:05:08Z</time>
      </trkpt>
      <trkpt lat="43.38505" lon="5.92421">
        <ele>295.5</ele>
        <time>2015-05-13T14:05:24Z</time>
      </trkpt>
      <trkpt lat="43.38497" lon="5.92443">
        <ele>293.1</ele>
        <time>2015-05-13T14:05:42Z</time>
      </trkpt>
      <trkpt lat="43.38496" lon="5.92444">
        <ele>293.1</ele>
        <time>2015-05-13T14:05:43Z</time>
      </trkpt>
      <trkpt lat="43.3848" lon="5.92484">
        <ele>291.7</ele>
        <time>2015-05-13T14:06:13Z</time>
      </trkpt>
      <trkpt lat="43.38473" lon="5.92506">
        <ele>287.7</ele>
        <time>2015-05-13T14:06:29Z</time>
      </trkpt>
      <trkpt lat="43.38464" lon="5.92527">
        <ele>285.2</ele>
        <time>2015-05-13T14:06:44Z</time>
      </trkpt>
      <trkpt lat="43.38464" lon="5.92529">
        <ele>285.5</ele>
        <time>2015-05-13T14:06:45Z</time>
      </trkpt>
      <trkpt lat="43.38482" lon="5.92557">
        <ele>284.7</ele>
        <time>2015-05-13T14:07:18Z</time>
      </trkpt>
      <trkpt lat="43.385" lon="5.92554">
        <ele>282.1</ele>
        <time>2015-05-13T14:07:33Z</time>
      </trkpt>
      <trkpt lat="43.38516" lon="5.92545">
        <ele>277.6</ele>
        <time>2015-05-13T14:07:51Z</time>
      </trkpt>
      <trkpt lat="43.38517" lon="5.92545">
        <ele>278.3</ele>
        <time>2015-05-13T14:07:52Z</time>
      </trkpt>
      <trkpt lat="43.38551" lon="5.92542">
        <ele>277.5</ele>
        <time>2015-05-13T14:08:34Z</time>
      </trkpt>
      <trkpt lat="43.38567" lon="5.92554">
        <ele>285.7</ele>
        <time>2015-05-13T14:09:00Z</time>
      </trkpt>
      <trkpt lat="43.38567" lon="5.92554">
        <ele>285.6</ele>
        <time>2015-05-13T14:09:01Z</time>
      </trkpt>
      <trkpt lat="43.38591" lon="5.92587">
        <ele>293.6</ele>
        <time>2015-05-13T14:09:51Z</time>
      </trkpt>
      <trkpt lat="43.386" lon="5.92608">
        <ele>291.3</ele>
        <time>2015-05-13T14:10:09Z</time>
      </trkpt>
      <trkpt lat="43.38599" lon="5.92609">
        <ele>291.2</ele>
        <time>2015-05-13T14:10:10Z</time>
      </trkpt>
      <trkpt lat="43.38616" lon="5.92649">
        <ele>280.5</ele>
        <time>2015-05-13T14:10:49Z</time>
      </trkpt>
      <trkpt lat="43.38625" lon="5.9267">
        <ele>280.5</ele>
        <time>2015-05-13T14:11:11Z</time>
      </trkpt>
      <trkpt lat="43.38626" lon="5.9267">
        <ele>280.5</ele>
        <time>2015-05-13T14:11:12Z</time>
      </trkpt>
      <trkpt lat="43.38618" lon="5.92716">
        <ele>281</ele>
        <time>2015-05-13T14:11:42Z</time>
      </trkpt>
      <trkpt lat="43.38623" lon="5.92739">
        <ele>280.6</ele>
        <time>2015-05-13T14:11:57Z</time>
      </trkpt>
      <trkpt lat="43.38634" lon="5.92758">
        <ele>285.2</ele>
        <time>2015-05-13T14:12:11Z</time>
      </trkpt>
      <trkpt lat="43.3865" lon="5.92768">
        <ele>282.1</ele>
        <time>2015-05-13T14:12:28Z</time>
      </trkpt>
      <trkpt lat="43.38651" lon="5.92768">
        <ele>282.1</ele>
        <time>2015-05-13T14:12:29Z</time>
      </trkpt>
      <trkpt lat="43.38685" lon="5.92777">
        <ele>283.1</ele>
        <time>2015-05-13T14:13:00Z</time>
      </trkpt>
      <trkpt lat="43.38702" lon="5.92782">
        <ele>286</ele>
        <time>2015-05-13T14:13:16Z</time>
      </trkpt>
      <trkpt lat="43.38717" lon="5.92792">
        <ele>287.2</ele>
        <time>2015-05-13T14:13:30Z</time>
      </trkpt>
      <trkpt lat="43.38718" lon="5.92792">
        <ele>288</ele>
        <time>2015-05-13T14:13:31Z</time>
      </trkpt>
      <trkpt lat="43.38744" lon="5.9282">
        <ele>285.6</ele>
        <time>2015-05-13T14:14:04Z</time>
      </trkpt>
      <trkpt lat="43.3875" lon="5.92842">
        <ele>289.2</ele>
        <time>2015-05-13T14:14:22Z</time>
      </trkpt>
      <trkpt lat="43.38745" lon="5.92865">
        <ele>281.2</ele>
        <time>2015-05-13T14:14:38Z</time>
      </trkpt>
      <trkpt lat="43.38745" lon="5.92866">
        <ele>281.6</ele>
        <time>2015-05-13T14:14:39Z</time>
      </trkpt>
      <trkpt lat="43.38721" lon="5.92899">
        <ele>283.5</ele>
        <time>2015-05-13T14:15:11Z</time>
      </trkpt>
      <trkpt lat="43.38703" lon="5.92901">
        <ele>275.2</ele>
        <time>2015-05-13T14:15:59Z</time>
      </trkpt>
      <trkpt lat="43.38702" lon="5.92901">
        <ele>276</ele>
        <time>2015-05-13T14:16:00Z</time>
      </trkpt>
      <trkpt lat="43.38686" lon="5.92912">
        <ele>280.8</ele>
        <time>2015-05-13T14:18:14Z</time>
      </trkpt>
      <trkpt lat="43.38686" lon="5.92952">
        <ele>283.3</ele>
        <time>2015-05-13T14:18:49Z</time>
      </trkpt>
      <trkpt lat="43.38702" lon="5.9296">
        <ele>282.2</ele>
        <time>2015-05-13T14:19:05Z</time>
      </trkpt>
      <trkpt lat="43.38719" lon="5.92964">
        <ele>277.5</ele>
        <time>2015-05-13T14:19:21Z</time>
      </trkpt>
      <trkpt lat="43.38721" lon="5.92965">
        <ele>278.7</ele>
        <time>2015-05-13T14:19:22Z</time>
      </trkpt>
      <trkpt lat="43.38754" lon="5.92971">
        <ele>274.1</ele>
        <time>2015-05-13T14:19:51Z</time>
      </trkpt>
      <trkpt lat="43.3877" lon="5.92975">
        <ele>277.2</ele>
        <time>2015-05-13T14:20:03Z</time>
      </trkpt>
      <trkpt lat="43.38788" lon="5.92978">
        <ele>274.5</ele>
        <time>2015-05-13T14:20:18Z</time>
      </trkpt>
      <trkpt lat="43.38804" lon="5.92985">
        <ele>271.7</ele>
        <time>2015-05-13T14:20:34Z</time>
      </trkpt>
      <trkpt lat="43.38806" lon="5.92986">
        <ele>271.3</ele>
        <time>2015-05-13T14:20:35Z</time>
      </trkpt>
      <trkpt lat="43.38835" lon="5.93005">
        <ele>275.1</ele>
        <time>2015-05-13T14:21:02Z</time>
      </trkpt>
      <trkpt lat="43.38852" lon="5.93013">
        <ele>273.2</ele>
        <time>2015-05-13T14:21:19Z</time>
      </trkpt>
      <trkpt lat="43.38867" lon="5.93024">
        <ele>274.5</ele>
        <time>2015-05-13T14:21:32Z</time>
      </trkpt>
      <trkpt lat="43.3888" lon="5.9304">
        <ele>275.7</ele>
        <time>2015-05-13T14:21:46Z</time>
      </trkpt>
      <trkpt lat="43.3888" lon="5.93042">
        <ele>276</ele>
        <time>2015-05-13T14:21:47Z</time>
      </trkpt>
      <trkpt lat="43.38904" lon="5.93073">
        <ele>275.3</ele>
        <time>2015-05-13T14:22:14Z</time>
      </trkpt>
      <trkpt lat="43.3892" lon="5.93082">
        <ele>276.2</ele>
        <time>2015-05-13T14:22:31Z</time>
      </trkpt>
      <trkpt lat="43.38936" lon="5.93093">
        <ele>270.2</ele>
        <time>2015-05-13T14:22:48Z</time>
      </trkpt>
      <trkpt lat="43.38936" lon="5.93094">
        <ele>269.6</ele>
        <time>2015-05-13T14:22:49Z</time>
      </trkpt>
    </trkseg>
  </trk>
</gpx>